<?xml version="1.0" encoding="UTF-8" standalone="no" ?>
<gpx xmlns="http://www.topografix.com/GPX/1/1" xmlns:xsi="http://www.w3.org/2001/XMLSchema-instance" xsi:schemaLocation="http://www.topografix.com/GPX/1/1 http://www.topografix.com/GPX/1/1/gpx.xsd" version="1.1" creator="VisuGPX - https://www.visugpx.com">
  <metadata>
    <name>USM st denis: Villeneuve sur Yonne 28/11/15</name>
    <desc><![CDATA[Autour de Villeneuve sur Yonne]]></desc>
  </metadata>
  <wpt lat="48.07929" lon="3.26077">
    <ele>161</ele>
    <name><![CDATA[Gîte des 3 roses. Départ -Arrivée]]></name>
    <desc><![CDATA[Bâtiment]]></desc>
    <cmt><![CDATA[Bâtiment]]></cmt>
  </wpt>
  <trk>
    <name><![CDATA[Villeneuve sur Yonne]]></name>
    <trkseg>
      <trkpt lat="48.07932" lon="3.2605">
        <ele>175.58</ele>
        <time>2015-11-28T12:46:55Z</time>
      </trkpt>
      <trkpt lat="48.07938" lon="3.2605">
        <ele>174.62</ele>
        <time>2015-11-28T12:56:09Z</time>
      </trkpt>
      <trkpt lat="48.07943" lon="3.26059">
        <ele>173.66</ele>
        <time>2015-11-28T13:02:29Z</time>
      </trkpt>
      <trkpt lat="48.07942" lon="3.26091">
        <ele>173.17</ele>
        <time>2015-11-28T13:02:37Z</time>
      </trkpt>
      <trkpt lat="48.07942" lon="3.26118">
        <ele>173.17</ele>
        <time>2015-11-28T13:02:43Z</time>
      </trkpt>
      <trkpt lat="48.07942" lon="3.26148">
        <ele>173.66</ele>
        <time>2015-11-28T13:02:50Z</time>
      </trkpt>
      <trkpt lat="48.07942" lon="3.26177">
        <ele>173.66</ele>
        <time>2015-11-28T13:02:57Z</time>
      </trkpt>
      <trkpt lat="48.07942" lon="3.26204">
        <ele>173.66</ele>
        <time>2015-11-28T13:03:03Z</time>
      </trkpt>
      <trkpt lat="48.07942" lon="3.26233">
        <ele>173.17</ele>
        <time>2015-11-28T13:03:09Z</time>
      </trkpt>
      <trkpt lat="48.07943" lon="3.26266">
        <ele>173.17</ele>
        <time>2015-11-28T13:03:15Z</time>
      </trkpt>
      <trkpt lat="48.07943" lon="3.26297">
        <ele>173.66</ele>
        <time>2015-11-28T13:03:21Z</time>
      </trkpt>
      <trkpt lat="48.07943" lon="3.26328">
        <ele>173.66</ele>
        <time>2015-11-28T13:03:27Z</time>
      </trkpt>
      <trkpt lat="48.07943" lon="3.26358">
        <ele>173.66</ele>
        <time>2015-11-28T13:03:33Z</time>
      </trkpt>
      <trkpt lat="48.07941" lon="3.26385">
        <ele>174.14</ele>
        <time>2015-11-28T13:03:39Z</time>
      </trkpt>
      <trkpt lat="48.07933" lon="3.26414">
        <ele>174.14</ele>
        <time>2015-11-28T13:03:46Z</time>
      </trkpt>
      <trkpt lat="48.07921" lon="3.2644">
        <ele>173.66</ele>
        <time>2015-11-28T13:03:51Z</time>
      </trkpt>
      <trkpt lat="48.0791" lon="3.26469">
        <ele>173.17</ele>
        <time>2015-11-28T13:03:56Z</time>
      </trkpt>
      <trkpt lat="48.079" lon="3.26496">
        <ele>171.73</ele>
        <time>2015-11-28T13:04:01Z</time>
      </trkpt>
      <trkpt lat="48.0789" lon="3.26524">
        <ele>171.73</ele>
        <time>2015-11-28T13:04:06Z</time>
      </trkpt>
      <trkpt lat="48.07883" lon="3.26549">
        <ele>170.77</ele>
        <time>2015-11-28T13:04:10Z</time>
      </trkpt>
      <trkpt lat="48.07876" lon="3.2658">
        <ele>169.33</ele>
        <time>2015-11-28T13:04:14Z</time>
      </trkpt>
      <trkpt lat="48.07871" lon="3.26609">
        <ele>167.41</ele>
        <time>2015-11-28T13:04:18Z</time>
      </trkpt>
      <trkpt lat="48.07866" lon="3.26638">
        <ele>165.96</ele>
        <time>2015-11-28T13:04:23Z</time>
      </trkpt>
      <trkpt lat="48.07859" lon="3.26669">
        <ele>164.52</ele>
        <time>2015-11-28T13:04:28Z</time>
      </trkpt>
      <trkpt lat="48.07851" lon="3.26692">
        <ele>163.08</ele>
        <time>2015-11-28T13:04:34Z</time>
      </trkpt>
      <trkpt lat="48.07834" lon="3.26684">
        <ele>158.75</ele>
        <time>2015-11-28T13:04:42Z</time>
      </trkpt>
      <trkpt lat="48.07816" lon="3.26663">
        <ele>153.47</ele>
        <time>2015-11-28T13:05:04Z</time>
      </trkpt>
      <trkpt lat="48.07798" lon="3.26646">
        <ele>147.7</ele>
        <time>2015-11-28T13:05:10Z</time>
      </trkpt>
      <trkpt lat="48.07789" lon="3.26619">
        <ele>144.34</ele>
        <time>2015-11-28T13:05:15Z</time>
      </trkpt>
      <trkpt lat="48.07767" lon="3.26608">
        <ele>137.61</ele>
        <time>2015-11-28T13:05:20Z</time>
      </trkpt>
      <trkpt lat="48.07749" lon="3.26606">
        <ele>132.8</ele>
        <time>2015-11-28T13:05:24Z</time>
      </trkpt>
      <trkpt lat="48.0773" lon="3.26614">
        <ele>126.07</ele>
        <time>2015-11-28T13:05:29Z</time>
      </trkpt>
      <trkpt lat="48.07712" lon="3.26624">
        <ele>119.82</ele>
        <time>2015-11-28T13:05:34Z</time>
      </trkpt>
      <trkpt lat="48.07693" lon="3.26628">
        <ele>112.13</ele>
        <time>2015-11-28T13:05:40Z</time>
      </trkpt>
      <trkpt lat="48.07673" lon="3.26635">
        <ele>105.88</ele>
        <time>2015-11-28T13:05:46Z</time>
      </trkpt>
      <trkpt lat="48.0766" lon="3.26617">
        <ele>104.92</ele>
        <time>2015-11-28T13:05:57Z</time>
      </trkpt>
      <trkpt lat="48.07661" lon="3.26583">
        <ele>106.36</ele>
        <time>2015-11-28T13:06:22Z</time>
      </trkpt>
      <trkpt lat="48.07666" lon="3.26544">
        <ele>105.88</ele>
        <time>2015-11-28T13:07:20Z</time>
      </trkpt>
      <trkpt lat="48.07671" lon="3.26516">
        <ele>106.36</ele>
        <time>2015-11-28T13:07:29Z</time>
      </trkpt>
      <trkpt lat="48.07676" lon="3.26486">
        <ele>106.84</ele>
        <time>2015-11-28T13:07:37Z</time>
      </trkpt>
      <trkpt lat="48.07679" lon="3.26456">
        <ele>107.32</ele>
        <time>2015-11-28T13:07:45Z</time>
      </trkpt>
      <trkpt lat="48.07681" lon="3.26423">
        <ele>107.81</ele>
        <time>2015-11-28T13:07:52Z</time>
      </trkpt>
      <trkpt lat="48.0768" lon="3.2639">
        <ele>108.29</ele>
        <time>2015-11-28T13:07:59Z</time>
      </trkpt>
      <trkpt lat="48.07678" lon="3.26356">
        <ele>108.77</ele>
        <time>2015-11-28T13:08:07Z</time>
      </trkpt>
      <trkpt lat="48.07676" lon="3.26324">
        <ele>108.77</ele>
        <time>2015-11-28T13:08:14Z</time>
      </trkpt>
      <trkpt lat="48.07676" lon="3.26293">
        <ele>110.21</ele>
        <time>2015-11-28T13:08:20Z</time>
      </trkpt>
      <trkpt lat="48.07676" lon="3.26263">
        <ele>109.73</ele>
        <time>2015-11-28T13:08:26Z</time>
      </trkpt>
      <trkpt lat="48.07676" lon="3.26233">
        <ele>110.21</ele>
        <time>2015-11-28T13:08:32Z</time>
      </trkpt>
      <trkpt lat="48.07676" lon="3.26203">
        <ele>111.17</ele>
        <time>2015-11-28T13:08:38Z</time>
      </trkpt>
      <trkpt lat="48.07676" lon="3.26172">
        <ele>112.13</ele>
        <time>2015-11-28T13:08:44Z</time>
      </trkpt>
      <trkpt lat="48.07677" lon="3.26143">
        <ele>112.13</ele>
        <time>2015-11-28T13:08:50Z</time>
      </trkpt>
      <trkpt lat="48.07678" lon="3.26112">
        <ele>113.09</ele>
        <time>2015-11-28T13:08:56Z</time>
      </trkpt>
      <trkpt lat="48.0768" lon="3.2608">
        <ele>113.57</ele>
        <time>2015-11-28T13:09:02Z</time>
      </trkpt>
      <trkpt lat="48.07682" lon="3.26052">
        <ele>114.05</ele>
        <time>2015-11-28T13:09:08Z</time>
      </trkpt>
      <trkpt lat="48.07683" lon="3.2602">
        <ele>115.01</ele>
        <time>2015-11-28T13:09:14Z</time>
      </trkpt>
      <trkpt lat="48.07681" lon="3.25992">
        <ele>115.98</ele>
        <time>2015-11-28T13:09:20Z</time>
      </trkpt>
      <trkpt lat="48.07685" lon="3.2596">
        <ele>116.46</ele>
        <time>2015-11-28T13:09:26Z</time>
      </trkpt>
      <trkpt lat="48.07688" lon="3.25929">
        <ele>116.94</ele>
        <time>2015-11-28T13:09:32Z</time>
      </trkpt>
      <trkpt lat="48.07692" lon="3.25897">
        <ele>116.94</ele>
        <time>2015-11-28T13:09:38Z</time>
      </trkpt>
      <trkpt lat="48.07696" lon="3.25869">
        <ele>116.46</ele>
        <time>2015-11-28T13:09:44Z</time>
      </trkpt>
      <trkpt lat="48.07698" lon="3.25838">
        <ele>117.42</ele>
        <time>2015-11-28T13:09:50Z</time>
      </trkpt>
      <trkpt lat="48.077" lon="3.25809">
        <ele>118.86</ele>
        <time>2015-11-28T13:09:56Z</time>
      </trkpt>
      <trkpt lat="48.07702" lon="3.25778">
        <ele>119.34</ele>
        <time>2015-11-28T13:10:02Z</time>
      </trkpt>
      <trkpt lat="48.07705" lon="3.25748">
        <ele>119.82</ele>
        <time>2015-11-28T13:10:08Z</time>
      </trkpt>
      <trkpt lat="48.07709" lon="3.25718">
        <ele>120.3</ele>
        <time>2015-11-28T13:10:14Z</time>
      </trkpt>
      <trkpt lat="48.07712" lon="3.25689">
        <ele>121.26</ele>
        <time>2015-11-28T13:10:21Z</time>
      </trkpt>
      <trkpt lat="48.07714" lon="3.25659">
        <ele>121.74</ele>
        <time>2015-11-28T13:10:30Z</time>
      </trkpt>
      <trkpt lat="48.07713" lon="3.25622">
        <ele>123.19</ele>
        <time>2015-11-28T13:10:38Z</time>
      </trkpt>
      <trkpt lat="48.07709" lon="3.25591">
        <ele>124.15</ele>
        <time>2015-11-28T13:10:45Z</time>
      </trkpt>
      <trkpt lat="48.07706" lon="3.25559">
        <ele>125.11</ele>
        <time>2015-11-28T13:10:53Z</time>
      </trkpt>
      <trkpt lat="48.07702" lon="3.25522">
        <ele>125.59</ele>
        <time>2015-11-28T13:11:01Z</time>
      </trkpt>
      <trkpt lat="48.07701" lon="3.25491">
        <ele>126.55</ele>
        <time>2015-11-28T13:11:08Z</time>
      </trkpt>
      <trkpt lat="48.07697" lon="3.25459">
        <ele>126.55</ele>
        <time>2015-11-28T13:11:16Z</time>
      </trkpt>
      <trkpt lat="48.07694" lon="3.25424">
        <ele>127.03</ele>
        <time>2015-11-28T13:11:23Z</time>
      </trkpt>
      <trkpt lat="48.07685" lon="3.25392">
        <ele>127.99</ele>
        <time>2015-11-28T13:11:31Z</time>
      </trkpt>
      <trkpt lat="48.07674" lon="3.25365">
        <ele>128.95</ele>
        <time>2015-11-28T13:11:39Z</time>
      </trkpt>
      <trkpt lat="48.07666" lon="3.25337">
        <ele>129.43</ele>
        <time>2015-11-28T13:11:47Z</time>
      </trkpt>
      <trkpt lat="48.07655" lon="3.25312">
        <ele>130.4</ele>
        <time>2015-11-28T13:11:55Z</time>
      </trkpt>
      <trkpt lat="48.07642" lon="3.25286">
        <ele>131.36</ele>
        <time>2015-11-28T13:12:03Z</time>
      </trkpt>
      <trkpt lat="48.0763" lon="3.25255">
        <ele>132.32</ele>
        <time>2015-11-28T13:12:12Z</time>
      </trkpt>
      <trkpt lat="48.07617" lon="3.25227">
        <ele>132.8</ele>
        <time>2015-11-28T13:12:21Z</time>
      </trkpt>
      <trkpt lat="48.07605" lon="3.25201">
        <ele>133.28</ele>
        <time>2015-11-28T13:12:28Z</time>
      </trkpt>
      <trkpt lat="48.0759" lon="3.25174">
        <ele>133.76</ele>
        <time>2015-11-28T13:12:36Z</time>
      </trkpt>
      <trkpt lat="48.07573" lon="3.25153">
        <ele>133.76</ele>
        <time>2015-11-28T13:12:44Z</time>
      </trkpt>
      <trkpt lat="48.07564" lon="3.25125">
        <ele>134.72</ele>
        <time>2015-11-28T13:12:52Z</time>
      </trkpt>
      <trkpt lat="48.07564" lon="3.25096">
        <ele>135.2</ele>
        <time>2015-11-28T13:13:00Z</time>
      </trkpt>
      <trkpt lat="48.07552" lon="3.25072">
        <ele>134.72</ele>
        <time>2015-11-28T13:13:08Z</time>
      </trkpt>
      <trkpt lat="48.07535" lon="3.25052">
        <ele>135.2</ele>
        <time>2015-11-28T13:13:15Z</time>
      </trkpt>
      <trkpt lat="48.07517" lon="3.25033">
        <ele>135.68</ele>
        <time>2015-11-28T13:13:23Z</time>
      </trkpt>
      <trkpt lat="48.07504" lon="3.25001">
        <ele>136.16</ele>
        <time>2015-11-28T13:13:31Z</time>
      </trkpt>
      <trkpt lat="48.07489" lon="3.24981">
        <ele>138.09</ele>
        <time>2015-11-28T13:13:43Z</time>
      </trkpt>
      <trkpt lat="48.07467" lon="3.2497">
        <ele>140.01</ele>
        <time>2015-11-28T13:13:53Z</time>
      </trkpt>
      <trkpt lat="48.07458" lon="3.24939">
        <ele>140.01</ele>
        <time>2015-11-28T13:14:03Z</time>
      </trkpt>
      <trkpt lat="48.0745" lon="3.24904">
        <ele>140.01</ele>
        <time>2015-11-28T13:14:14Z</time>
      </trkpt>
      <trkpt lat="48.07432" lon="3.2488">
        <ele>140.49</ele>
        <time>2015-11-28T13:14:22Z</time>
      </trkpt>
      <trkpt lat="48.07416" lon="3.24858">
        <ele>141.45</ele>
        <time>2015-11-28T13:14:29Z</time>
      </trkpt>
      <trkpt lat="48.07399" lon="3.24836">
        <ele>142.41</ele>
        <time>2015-11-28T13:14:37Z</time>
      </trkpt>
      <trkpt lat="48.07378" lon="3.24813">
        <ele>143.37</ele>
        <time>2015-11-28T13:14:46Z</time>
      </trkpt>
      <trkpt lat="48.07356" lon="3.24787">
        <ele>144.34</ele>
        <time>2015-11-28T13:14:54Z</time>
      </trkpt>
      <trkpt lat="48.07325" lon="3.24771">
        <ele>145.3</ele>
        <time>2015-11-28T13:15:04Z</time>
      </trkpt>
      <trkpt lat="48.07301" lon="3.24753">
        <ele>147.22</ele>
        <time>2015-11-28T13:15:12Z</time>
      </trkpt>
      <trkpt lat="48.07283" lon="3.24731">
        <ele>148.66</ele>
        <time>2015-11-28T13:15:19Z</time>
      </trkpt>
      <trkpt lat="48.07265" lon="3.24702">
        <ele>149.62</ele>
        <time>2015-11-28T13:15:27Z</time>
      </trkpt>
      <trkpt lat="48.07247" lon="3.2468">
        <ele>151.06</ele>
        <time>2015-11-28T13:15:36Z</time>
      </trkpt>
      <trkpt lat="48.07234" lon="3.24656">
        <ele>151.06</ele>
        <time>2015-11-28T13:15:44Z</time>
      </trkpt>
      <trkpt lat="48.0722" lon="3.24631">
        <ele>152.03</ele>
        <time>2015-11-28T13:15:52Z</time>
      </trkpt>
      <trkpt lat="48.07212" lon="3.24593">
        <ele>152.03</ele>
        <time>2015-11-28T13:15:59Z</time>
      </trkpt>
      <trkpt lat="48.07206" lon="3.24563">
        <ele>153.47</ele>
        <time>2015-11-28T13:16:09Z</time>
      </trkpt>
      <trkpt lat="48.07214" lon="3.24519">
        <ele>155.87</ele>
        <time>2015-11-28T13:16:22Z</time>
      </trkpt>
      <trkpt lat="48.07225" lon="3.24477">
        <ele>156.83</ele>
        <time>2015-11-28T13:16:33Z</time>
      </trkpt>
      <trkpt lat="48.07231" lon="3.24439">
        <ele>159.24</ele>
        <time>2015-11-28T13:16:44Z</time>
      </trkpt>
      <trkpt lat="48.07242" lon="3.24392">
        <ele>160.68</ele>
        <time>2015-11-28T13:16:56Z</time>
      </trkpt>
      <trkpt lat="48.07243" lon="3.24348">
        <ele>163.56</ele>
        <time>2015-11-28T13:17:06Z</time>
      </trkpt>
      <trkpt lat="48.07241" lon="3.24307">
        <ele>164.04</ele>
        <time>2015-11-28T13:17:16Z</time>
      </trkpt>
      <trkpt lat="48.07237" lon="3.24256">
        <ele>165.48</ele>
        <time>2015-11-28T13:17:27Z</time>
      </trkpt>
      <trkpt lat="48.0723" lon="3.24219">
        <ele>166.93</ele>
        <time>2015-11-28T13:17:36Z</time>
      </trkpt>
      <trkpt lat="48.07217" lon="3.24187">
        <ele>168.37</ele>
        <time>2015-11-28T13:17:45Z</time>
      </trkpt>
      <trkpt lat="48.07206" lon="3.24153">
        <ele>169.81</ele>
        <time>2015-11-28T13:17:53Z</time>
      </trkpt>
      <trkpt lat="48.07194" lon="3.24126">
        <ele>171.25</ele>
        <time>2015-11-28T13:18:00Z</time>
      </trkpt>
      <trkpt lat="48.07181" lon="3.24099">
        <ele>171.73</ele>
        <time>2015-11-28T13:18:07Z</time>
      </trkpt>
      <trkpt lat="48.07168" lon="3.24072">
        <ele>173.17</ele>
        <time>2015-11-28T13:18:14Z</time>
      </trkpt>
      <trkpt lat="48.07155" lon="3.24041">
        <ele>173.66</ele>
        <time>2015-11-28T13:18:22Z</time>
      </trkpt>
      <trkpt lat="48.0714" lon="3.24011">
        <ele>174.62</ele>
        <time>2015-11-28T13:18:32Z</time>
      </trkpt>
      <trkpt lat="48.0712" lon="3.23975">
        <ele>176.54</ele>
        <time>2015-11-28T13:18:42Z</time>
      </trkpt>
      <trkpt lat="48.07115" lon="3.23955">
        <ele>176.06</ele>
        <time>2015-11-28T13:20:51Z</time>
      </trkpt>
      <trkpt lat="48.07111" lon="3.23934">
        <ele>177.5</ele>
        <time>2015-11-28T13:21:04Z</time>
      </trkpt>
      <trkpt lat="48.07122" lon="3.23912">
        <ele>179.42</ele>
        <time>2015-11-28T13:21:16Z</time>
      </trkpt>
      <trkpt lat="48.07138" lon="3.23888">
        <ele>182.31</ele>
        <time>2015-11-28T13:21:26Z</time>
      </trkpt>
      <trkpt lat="48.07155" lon="3.23863">
        <ele>183.75</ele>
        <time>2015-11-28T13:21:37Z</time>
      </trkpt>
      <trkpt lat="48.07173" lon="3.23839">
        <ele>185.67</ele>
        <time>2015-11-28T13:21:49Z</time>
      </trkpt>
      <trkpt lat="48.07196" lon="3.23814">
        <ele>187.59</ele>
        <time>2015-11-28T13:22:03Z</time>
      </trkpt>
      <trkpt lat="48.07219" lon="3.23782">
        <ele>190.48</ele>
        <time>2015-11-28T13:22:16Z</time>
      </trkpt>
      <trkpt lat="48.0724" lon="3.2375">
        <ele>192.4</ele>
        <time>2015-11-28T13:22:28Z</time>
      </trkpt>
      <trkpt lat="48.07257" lon="3.23719">
        <ele>194.32</ele>
        <time>2015-11-28T13:22:38Z</time>
      </trkpt>
      <trkpt lat="48.07271" lon="3.23684">
        <ele>196.25</ele>
        <time>2015-11-28T13:22:50Z</time>
      </trkpt>
      <trkpt lat="48.0729" lon="3.23652">
        <ele>197.21</ele>
        <time>2015-11-28T13:22:59Z</time>
      </trkpt>
      <trkpt lat="48.07307" lon="3.23619">
        <ele>197.69</ele>
        <time>2015-11-28T13:23:09Z</time>
      </trkpt>
      <trkpt lat="48.07321" lon="3.2359">
        <ele>197.69</ele>
        <time>2015-11-28T13:23:16Z</time>
      </trkpt>
      <trkpt lat="48.07331" lon="3.23557">
        <ele>197.21</ele>
        <time>2015-11-28T13:23:23Z</time>
      </trkpt>
      <trkpt lat="48.07344" lon="3.23521">
        <ele>195.28</ele>
        <time>2015-11-28T13:23:30Z</time>
      </trkpt>
      <trkpt lat="48.07349" lon="3.23484">
        <ele>194.8</ele>
        <time>2015-11-28T13:23:36Z</time>
      </trkpt>
      <trkpt lat="48.07355" lon="3.23446">
        <ele>194.32</ele>
        <time>2015-11-28T13:23:42Z</time>
      </trkpt>
      <trkpt lat="48.07361" lon="3.23409">
        <ele>192.4</ele>
        <time>2015-11-28T13:23:48Z</time>
      </trkpt>
      <trkpt lat="48.07368" lon="3.23378">
        <ele>190.96</ele>
        <time>2015-11-28T13:23:53Z</time>
      </trkpt>
      <trkpt lat="48.07378" lon="3.2334">
        <ele>189.04</ele>
        <time>2015-11-28T13:23:58Z</time>
      </trkpt>
      <trkpt lat="48.07387" lon="3.23314">
        <ele>187.59</ele>
        <time>2015-11-28T13:24:02Z</time>
      </trkpt>
      <trkpt lat="48.07397" lon="3.23285">
        <ele>186.15</ele>
        <time>2015-11-28T13:24:06Z</time>
      </trkpt>
      <trkpt lat="48.07403" lon="3.23256">
        <ele>184.71</ele>
        <time>2015-11-28T13:24:09Z</time>
      </trkpt>
      <trkpt lat="48.07412" lon="3.23227">
        <ele>182.79</ele>
        <time>2015-11-28T13:24:12Z</time>
      </trkpt>
      <trkpt lat="48.0742" lon="3.23198">
        <ele>180.87</ele>
        <time>2015-11-28T13:24:15Z</time>
      </trkpt>
      <trkpt lat="48.07428" lon="3.23166">
        <ele>180.38</ele>
        <time>2015-11-28T13:24:18Z</time>
      </trkpt>
      <trkpt lat="48.07436" lon="3.23136">
        <ele>178.94</ele>
        <time>2015-11-28T13:24:21Z</time>
      </trkpt>
      <trkpt lat="48.07442" lon="3.23107">
        <ele>177.5</ele>
        <time>2015-11-28T13:24:24Z</time>
      </trkpt>
      <trkpt lat="48.07447" lon="3.23077">
        <ele>176.54</ele>
        <time>2015-11-28T13:24:27Z</time>
      </trkpt>
      <trkpt lat="48.07453" lon="3.23048">
        <ele>175.58</ele>
        <time>2015-11-28T13:24:30Z</time>
      </trkpt>
      <trkpt lat="48.0746" lon="3.23012">
        <ele>173.66</ele>
        <time>2015-11-28T13:24:34Z</time>
      </trkpt>
      <trkpt lat="48.07467" lon="3.22979">
        <ele>172.21</ele>
        <time>2015-11-28T13:24:38Z</time>
      </trkpt>
      <trkpt lat="48.07474" lon="3.22945">
        <ele>170.29</ele>
        <time>2015-11-28T13:24:42Z</time>
      </trkpt>
      <trkpt lat="48.07483" lon="3.2291">
        <ele>167.89</ele>
        <time>2015-11-28T13:24:46Z</time>
      </trkpt>
      <trkpt lat="48.07491" lon="3.22878">
        <ele>165.96</ele>
        <time>2015-11-28T13:24:49Z</time>
      </trkpt>
      <trkpt lat="48.075" lon="3.22841">
        <ele>162.6</ele>
        <time>2015-11-28T13:24:52Z</time>
      </trkpt>
      <trkpt lat="48.07507" lon="3.22803">
        <ele>161.16</ele>
        <time>2015-11-28T13:24:55Z</time>
      </trkpt>
      <trkpt lat="48.07518" lon="3.22771">
        <ele>158.27</ele>
        <time>2015-11-28T13:24:58Z</time>
      </trkpt>
      <trkpt lat="48.07527" lon="3.22735">
        <ele>153.47</ele>
        <time>2015-11-28T13:25:01Z</time>
      </trkpt>
      <trkpt lat="48.07535" lon="3.22698">
        <ele>150.58</ele>
        <time>2015-11-28T13:25:04Z</time>
      </trkpt>
      <trkpt lat="48.07546" lon="3.22663">
        <ele>146.74</ele>
        <time>2015-11-28T13:25:07Z</time>
      </trkpt>
      <trkpt lat="48.07554" lon="3.22628">
        <ele>143.85</ele>
        <time>2015-11-28T13:25:10Z</time>
      </trkpt>
      <trkpt lat="48.07561" lon="3.22597">
        <ele>140.97</ele>
        <time>2015-11-28T13:25:13Z</time>
      </trkpt>
      <trkpt lat="48.07569" lon="3.22564">
        <ele>138.09</ele>
        <time>2015-11-28T13:25:16Z</time>
      </trkpt>
      <trkpt lat="48.0757" lon="3.22528">
        <ele>135.68</ele>
        <time>2015-11-28T13:25:19Z</time>
      </trkpt>
      <trkpt lat="48.07573" lon="3.22494">
        <ele>132.32</ele>
        <time>2015-11-28T13:25:22Z</time>
      </trkpt>
      <trkpt lat="48.0758" lon="3.22465">
        <ele>129.92</ele>
        <time>2015-11-28T13:25:25Z</time>
      </trkpt>
      <trkpt lat="48.07586" lon="3.22437">
        <ele>127.99</ele>
        <time>2015-11-28T13:25:28Z</time>
      </trkpt>
      <trkpt lat="48.07592" lon="3.22403">
        <ele>124.63</ele>
        <time>2015-11-28T13:25:35Z</time>
      </trkpt>
      <trkpt lat="48.07603" lon="3.22375">
        <ele>122.22</ele>
        <time>2015-11-28T13:25:44Z</time>
      </trkpt>
      <trkpt lat="48.07622" lon="3.2238">
        <ele>121.26</ele>
        <time>2015-11-28T13:25:57Z</time>
      </trkpt>
      <trkpt lat="48.07643" lon="3.2239">
        <ele>121.26</ele>
        <time>2015-11-28T13:26:09Z</time>
      </trkpt>
      <trkpt lat="48.07663" lon="3.22399">
        <ele>121.26</ele>
        <time>2015-11-28T13:26:17Z</time>
      </trkpt>
      <trkpt lat="48.07686" lon="3.22411">
        <ele>121.26</ele>
        <time>2015-11-28T13:26:26Z</time>
      </trkpt>
      <trkpt lat="48.07711" lon="3.2242">
        <ele>120.78</ele>
        <time>2015-11-28T13:26:33Z</time>
      </trkpt>
      <trkpt lat="48.07735" lon="3.22429">
        <ele>121.26</ele>
        <time>2015-11-28T13:26:39Z</time>
      </trkpt>
      <trkpt lat="48.07757" lon="3.22438">
        <ele>120.78</ele>
        <time>2015-11-28T13:26:44Z</time>
      </trkpt>
      <trkpt lat="48.07776" lon="3.22449">
        <ele>120.3</ele>
        <time>2015-11-28T13:26:49Z</time>
      </trkpt>
      <trkpt lat="48.07795" lon="3.22465">
        <ele>120.3</ele>
        <time>2015-11-28T13:26:57Z</time>
      </trkpt>
      <trkpt lat="48.07817" lon="3.22481">
        <ele>119.34</ele>
        <time>2015-11-28T13:27:17Z</time>
      </trkpt>
      <trkpt lat="48.07835" lon="3.22494">
        <ele>119.34</ele>
        <time>2015-11-28T13:27:24Z</time>
      </trkpt>
      <trkpt lat="48.07851" lon="3.22511">
        <ele>119.34</ele>
        <time>2015-11-28T13:27:30Z</time>
      </trkpt>
      <trkpt lat="48.0787" lon="3.22527">
        <ele>119.34</ele>
        <time>2015-11-28T13:27:36Z</time>
      </trkpt>
      <trkpt lat="48.07889" lon="3.22543">
        <ele>119.34</ele>
        <time>2015-11-28T13:27:41Z</time>
      </trkpt>
      <trkpt lat="48.07906" lon="3.22559">
        <ele>118.38</ele>
        <time>2015-11-28T13:27:46Z</time>
      </trkpt>
      <trkpt lat="48.07926" lon="3.22572">
        <ele>118.38</ele>
        <time>2015-11-28T13:27:52Z</time>
      </trkpt>
      <trkpt lat="48.07946" lon="3.22582">
        <ele>117.42</ele>
        <time>2015-11-28T13:27:57Z</time>
      </trkpt>
      <trkpt lat="48.07966" lon="3.22592">
        <ele>117.9</ele>
        <time>2015-11-28T13:28:02Z</time>
      </trkpt>
      <trkpt lat="48.07987" lon="3.22603">
        <ele>116.94</ele>
        <time>2015-11-28T13:28:07Z</time>
      </trkpt>
      <trkpt lat="48.08007" lon="3.22616">
        <ele>118.38</ele>
        <time>2015-11-28T13:28:12Z</time>
      </trkpt>
      <trkpt lat="48.08028" lon="3.22628">
        <ele>117.9</ele>
        <time>2015-11-28T13:28:17Z</time>
      </trkpt>
      <trkpt lat="48.08048" lon="3.22639">
        <ele>117.42</ele>
        <time>2015-11-28T13:28:22Z</time>
      </trkpt>
      <trkpt lat="48.08069" lon="3.22651">
        <ele>118.38</ele>
        <time>2015-11-28T13:28:27Z</time>
      </trkpt>
      <trkpt lat="48.08091" lon="3.22664">
        <ele>117.9</ele>
        <time>2015-11-28T13:28:32Z</time>
      </trkpt>
      <trkpt lat="48.08108" lon="3.22675">
        <ele>116.94</ele>
        <time>2015-11-28T13:28:36Z</time>
      </trkpt>
      <trkpt lat="48.08127" lon="3.22689">
        <ele>117.42</ele>
        <time>2015-11-28T13:28:40Z</time>
      </trkpt>
      <trkpt lat="48.08144" lon="3.22701">
        <ele>117.42</ele>
        <time>2015-11-28T13:28:44Z</time>
      </trkpt>
      <trkpt lat="48.08161" lon="3.22713">
        <ele>116.94</ele>
        <time>2015-11-28T13:28:48Z</time>
      </trkpt>
      <trkpt lat="48.08177" lon="3.22728">
        <ele>116.46</ele>
        <time>2015-11-28T13:28:52Z</time>
      </trkpt>
      <trkpt lat="48.08196" lon="3.22744">
        <ele>116.94</ele>
        <time>2015-11-28T13:28:57Z</time>
      </trkpt>
      <trkpt lat="48.08216" lon="3.22761">
        <ele>116.94</ele>
        <time>2015-11-28T13:29:02Z</time>
      </trkpt>
      <trkpt lat="48.08235" lon="3.22778">
        <ele>117.42</ele>
        <time>2015-11-28T13:29:07Z</time>
      </trkpt>
      <trkpt lat="48.08253" lon="3.22796">
        <ele>116.94</ele>
        <time>2015-11-28T13:29:12Z</time>
      </trkpt>
      <trkpt lat="48.08269" lon="3.22813">
        <ele>116.46</ele>
        <time>2015-11-28T13:29:17Z</time>
      </trkpt>
      <trkpt lat="48.08288" lon="3.2283">
        <ele>116.46</ele>
        <time>2015-11-28T13:29:22Z</time>
      </trkpt>
      <trkpt lat="48.08309" lon="3.22848">
        <ele>116.46</ele>
        <time>2015-11-28T13:29:27Z</time>
      </trkpt>
      <trkpt lat="48.0833" lon="3.22864">
        <ele>116.46</ele>
        <time>2015-11-28T13:29:32Z</time>
      </trkpt>
      <trkpt lat="48.0835" lon="3.22884">
        <ele>116.46</ele>
        <time>2015-11-28T13:29:37Z</time>
      </trkpt>
      <trkpt lat="48.08369" lon="3.22901">
        <ele>117.42</ele>
        <time>2015-11-28T13:29:42Z</time>
      </trkpt>
      <trkpt lat="48.08391" lon="3.22922">
        <ele>117.9</ele>
        <time>2015-11-28T13:29:48Z</time>
      </trkpt>
      <trkpt lat="48.08413" lon="3.22944">
        <ele>117.9</ele>
        <time>2015-11-28T13:29:54Z</time>
      </trkpt>
      <trkpt lat="48.08432" lon="3.22958">
        <ele>117.42</ele>
        <time>2015-11-28T13:29:59Z</time>
      </trkpt>
      <trkpt lat="48.0845" lon="3.22975">
        <ele>117.42</ele>
        <time>2015-11-28T13:30:04Z</time>
      </trkpt>
      <trkpt lat="48.08472" lon="3.22996">
        <ele>117.42</ele>
        <time>2015-11-28T13:30:10Z</time>
      </trkpt>
      <trkpt lat="48.08488" lon="3.23016">
        <ele>115.5</ele>
        <time>2015-11-28T13:30:14Z</time>
      </trkpt>
      <trkpt lat="48.08502" lon="3.23037">
        <ele>114.05</ele>
        <time>2015-11-28T13:30:18Z</time>
      </trkpt>
      <trkpt lat="48.08521" lon="3.23057">
        <ele>114.53</ele>
        <time>2015-11-28T13:30:23Z</time>
      </trkpt>
      <trkpt lat="48.08539" lon="3.23084">
        <ele>114.05</ele>
        <time>2015-11-28T13:30:29Z</time>
      </trkpt>
      <trkpt lat="48.08553" lon="3.23106">
        <ele>113.57</ele>
        <time>2015-11-28T13:30:33Z</time>
      </trkpt>
      <trkpt lat="48.08568" lon="3.23135">
        <ele>112.61</ele>
        <time>2015-11-28T13:30:38Z</time>
      </trkpt>
      <trkpt lat="48.08584" lon="3.2316">
        <ele>112.13</ele>
        <time>2015-11-28T13:30:43Z</time>
      </trkpt>
      <trkpt lat="48.08599" lon="3.23183">
        <ele>112.61</ele>
        <time>2015-11-28T13:30:48Z</time>
      </trkpt>
      <trkpt lat="48.08615" lon="3.2321">
        <ele>113.57</ele>
        <time>2015-11-28T13:30:54Z</time>
      </trkpt>
      <trkpt lat="48.08628" lon="3.2324">
        <ele>113.09</ele>
        <time>2015-11-28T13:31:00Z</time>
      </trkpt>
      <trkpt lat="48.08641" lon="3.23269">
        <ele>114.53</ele>
        <time>2015-11-28T13:31:05Z</time>
      </trkpt>
      <trkpt lat="48.08652" lon="3.23296">
        <ele>111.65</ele>
        <time>2015-11-28T13:31:10Z</time>
      </trkpt>
      <trkpt lat="48.08663" lon="3.23323">
        <ele>111.17</ele>
        <time>2015-11-28T13:31:14Z</time>
      </trkpt>
      <trkpt lat="48.08675" lon="3.23354">
        <ele>110.21</ele>
        <time>2015-11-28T13:31:19Z</time>
      </trkpt>
      <trkpt lat="48.08689" lon="3.23383">
        <ele>110.21</ele>
        <time>2015-11-28T13:31:24Z</time>
      </trkpt>
      <trkpt lat="48.08705" lon="3.23401">
        <ele>109.25</ele>
        <time>2015-11-28T13:31:28Z</time>
      </trkpt>
      <trkpt lat="48.08723" lon="3.2342">
        <ele>108.77</ele>
        <time>2015-11-28T13:31:32Z</time>
      </trkpt>
      <trkpt lat="48.0874" lon="3.23442">
        <ele>106.84</ele>
        <time>2015-11-28T13:31:36Z</time>
      </trkpt>
      <trkpt lat="48.08753" lon="3.23463">
        <ele>105.4</ele>
        <time>2015-11-28T13:31:39Z</time>
      </trkpt>
      <trkpt lat="48.08768" lon="3.23491">
        <ele>105.4</ele>
        <time>2015-11-28T13:31:43Z</time>
      </trkpt>
      <trkpt lat="48.08786" lon="3.23507">
        <ele>104.92</ele>
        <time>2015-11-28T13:31:47Z</time>
      </trkpt>
      <trkpt lat="48.08811" lon="3.23514">
        <ele>105.88</ele>
        <time>2015-11-28T13:31:52Z</time>
      </trkpt>
      <trkpt lat="48.08834" lon="3.23513">
        <ele>105.4</ele>
        <time>2015-11-28T13:31:58Z</time>
      </trkpt>
      <trkpt lat="48.08858" lon="3.23495">
        <ele>104.44</ele>
        <time>2015-11-28T13:32:04Z</time>
      </trkpt>
      <trkpt lat="48.08875" lon="3.23476">
        <ele>103.48</ele>
        <time>2015-11-28T13:32:08Z</time>
      </trkpt>
      <trkpt lat="48.08889" lon="3.23449">
        <ele>103.96</ele>
        <time>2015-11-28T13:32:14Z</time>
      </trkpt>
      <trkpt lat="48.08876" lon="3.23425">
        <ele>103.96</ele>
        <time>2015-11-28T13:32:20Z</time>
      </trkpt>
      <trkpt lat="48.08864" lon="3.23402">
        <ele>103.48</ele>
        <time>2015-11-28T13:32:26Z</time>
      </trkpt>
      <trkpt lat="48.0885" lon="3.23378">
        <ele>103.48</ele>
        <time>2015-11-28T13:32:32Z</time>
      </trkpt>
      <trkpt lat="48.08835" lon="3.23358">
        <ele>103.96</ele>
        <time>2015-11-28T13:32:38Z</time>
      </trkpt>
      <trkpt lat="48.08819" lon="3.23331">
        <ele>105.88</ele>
        <time>2015-11-28T13:32:46Z</time>
      </trkpt>
      <trkpt lat="48.08805" lon="3.23298">
        <ele>105.4</ele>
        <time>2015-11-28T13:32:54Z</time>
      </trkpt>
      <trkpt lat="48.08798" lon="3.23269">
        <ele>105.88</ele>
        <time>2015-11-28T13:33:00Z</time>
      </trkpt>
      <trkpt lat="48.08794" lon="3.23237">
        <ele>105.4</ele>
        <time>2015-11-28T13:33:07Z</time>
      </trkpt>
      <trkpt lat="48.08791" lon="3.23204">
        <ele>106.36</ele>
        <time>2015-11-28T13:33:14Z</time>
      </trkpt>
      <trkpt lat="48.08787" lon="3.2317">
        <ele>105.88</ele>
        <time>2015-11-28T13:33:21Z</time>
      </trkpt>
      <trkpt lat="48.08783" lon="3.23138">
        <ele>106.36</ele>
        <time>2015-11-28T13:33:28Z</time>
      </trkpt>
      <trkpt lat="48.08777" lon="3.23107">
        <ele>107.32</ele>
        <time>2015-11-28T13:33:35Z</time>
      </trkpt>
      <trkpt lat="48.08773" lon="3.23078">
        <ele>107.32</ele>
        <time>2015-11-28T13:33:42Z</time>
      </trkpt>
      <trkpt lat="48.08769" lon="3.23048">
        <ele>107.81</ele>
        <time>2015-11-28T13:33:49Z</time>
      </trkpt>
      <trkpt lat="48.08764" lon="3.23017">
        <ele>109.25</ele>
        <time>2015-11-28T13:33:57Z</time>
      </trkpt>
      <trkpt lat="48.08765" lon="3.22979">
        <ele>109.25</ele>
        <time>2015-11-28T13:34:06Z</time>
      </trkpt>
      <trkpt lat="48.08767" lon="3.22948">
        <ele>110.21</ele>
        <time>2015-11-28T13:34:15Z</time>
      </trkpt>
      <trkpt lat="48.08764" lon="3.22914">
        <ele>113.09</ele>
        <time>2015-11-28T13:34:27Z</time>
      </trkpt>
      <trkpt lat="48.08752" lon="3.2289">
        <ele>115.01</ele>
        <time>2015-11-28T13:34:36Z</time>
      </trkpt>
      <trkpt lat="48.08747" lon="3.22863">
        <ele>117.9</ele>
        <time>2015-11-28T13:34:46Z</time>
      </trkpt>
      <trkpt lat="48.08746" lon="3.22834">
        <ele>119.34</ele>
        <time>2015-11-28T13:34:56Z</time>
      </trkpt>
      <trkpt lat="48.08748" lon="3.22805">
        <ele>122.22</ele>
        <time>2015-11-28T13:35:06Z</time>
      </trkpt>
      <trkpt lat="48.08752" lon="3.22779">
        <ele>123.67</ele>
        <time>2015-11-28T13:35:15Z</time>
      </trkpt>
      <trkpt lat="48.08756" lon="3.22751">
        <ele>125.11</ele>
        <time>2015-11-28T13:35:24Z</time>
      </trkpt>
      <trkpt lat="48.08765" lon="3.22725">
        <ele>127.03</ele>
        <time>2015-11-28T13:37:20Z</time>
      </trkpt>
      <trkpt lat="48.08771" lon="3.22695">
        <ele>127.51</ele>
        <time>2015-11-28T13:37:34Z</time>
      </trkpt>
      <trkpt lat="48.08784" lon="3.22663">
        <ele>126.07</ele>
        <time>2015-11-28T13:37:43Z</time>
      </trkpt>
      <trkpt lat="48.08793" lon="3.22634">
        <ele>124.15</ele>
        <time>2015-11-28T13:38:01Z</time>
      </trkpt>
      <trkpt lat="48.08805" lon="3.2265">
        <ele>122.71</ele>
        <time>2015-11-28T13:38:13Z</time>
      </trkpt>
      <trkpt lat="48.08815" lon="3.2268">
        <ele>121.26</ele>
        <time>2015-11-28T13:38:18Z</time>
      </trkpt>
      <trkpt lat="48.08823" lon="3.22708">
        <ele>120.3</ele>
        <time>2015-11-28T13:38:24Z</time>
      </trkpt>
      <trkpt lat="48.08831" lon="3.22736">
        <ele>118.86</ele>
        <time>2015-11-28T13:38:30Z</time>
      </trkpt>
      <trkpt lat="48.08838" lon="3.22762">
        <ele>117.9</ele>
        <time>2015-11-28T13:38:36Z</time>
      </trkpt>
      <trkpt lat="48.08846" lon="3.22791">
        <ele>115.98</ele>
        <time>2015-11-28T13:38:43Z</time>
      </trkpt>
      <trkpt lat="48.08855" lon="3.22819">
        <ele>115.01</ele>
        <time>2015-11-28T13:38:48Z</time>
      </trkpt>
      <trkpt lat="48.08872" lon="3.22812">
        <ele>113.57</ele>
        <time>2015-11-28T13:38:53Z</time>
      </trkpt>
      <trkpt lat="48.08876" lon="3.22784">
        <ele>114.05</ele>
        <time>2015-11-28T13:38:58Z</time>
      </trkpt>
      <trkpt lat="48.08881" lon="3.22755">
        <ele>114.53</ele>
        <time>2015-11-28T13:39:04Z</time>
      </trkpt>
      <trkpt lat="48.08886" lon="3.22726">
        <ele>115.5</ele>
        <time>2015-11-28T13:39:10Z</time>
      </trkpt>
      <trkpt lat="48.08893" lon="3.22697">
        <ele>115.98</ele>
        <time>2015-11-28T13:39:16Z</time>
      </trkpt>
      <trkpt lat="48.08902" lon="3.22668">
        <ele>115.98</ele>
        <time>2015-11-28T13:39:22Z</time>
      </trkpt>
      <trkpt lat="48.0891" lon="3.2264">
        <ele>116.94</ele>
        <time>2015-11-28T13:39:28Z</time>
      </trkpt>
      <trkpt lat="48.08918" lon="3.22613">
        <ele>117.42</ele>
        <time>2015-11-28T13:39:34Z</time>
      </trkpt>
      <trkpt lat="48.08926" lon="3.22586">
        <ele>120.3</ele>
        <time>2015-11-28T13:39:41Z</time>
      </trkpt>
      <trkpt lat="48.08935" lon="3.22559">
        <ele>122.22</ele>
        <time>2015-11-28T13:39:50Z</time>
      </trkpt>
      <trkpt lat="48.08942" lon="3.22521">
        <ele>126.07</ele>
        <time>2015-11-28T13:40:03Z</time>
      </trkpt>
      <trkpt lat="48.08953" lon="3.22488">
        <ele>129.92</ele>
        <time>2015-11-28T13:40:14Z</time>
      </trkpt>
      <trkpt lat="48.08969" lon="3.22463">
        <ele>134.24</ele>
        <time>2015-11-28T13:40:28Z</time>
      </trkpt>
      <trkpt lat="48.08984" lon="3.22433">
        <ele>137.13</ele>
        <time>2015-11-28T13:40:41Z</time>
      </trkpt>
      <trkpt lat="48.08991" lon="3.224">
        <ele>140.01</ele>
        <time>2015-11-28T13:40:53Z</time>
      </trkpt>
      <trkpt lat="48.09" lon="3.22371">
        <ele>143.37</ele>
        <time>2015-11-28T13:41:05Z</time>
      </trkpt>
      <trkpt lat="48.09007" lon="3.22339">
        <ele>145.3</ele>
        <time>2015-11-28T13:41:15Z</time>
      </trkpt>
      <trkpt lat="48.09012" lon="3.2231">
        <ele>148.18</ele>
        <time>2015-11-28T13:41:25Z</time>
      </trkpt>
      <trkpt lat="48.0902" lon="3.2228">
        <ele>150.1</ele>
        <time>2015-11-28T13:41:35Z</time>
      </trkpt>
      <trkpt lat="48.09029" lon="3.22251">
        <ele>152.51</ele>
        <time>2015-11-28T13:41:46Z</time>
      </trkpt>
      <trkpt lat="48.0904" lon="3.2221">
        <ele>154.91</ele>
        <time>2015-11-28T13:41:56Z</time>
      </trkpt>
      <trkpt lat="48.09051" lon="3.22179">
        <ele>156.83</ele>
        <time>2015-11-28T13:42:04Z</time>
      </trkpt>
      <trkpt lat="48.09063" lon="3.22153">
        <ele>158.27</ele>
        <time>2015-11-28T13:42:11Z</time>
      </trkpt>
      <trkpt lat="48.09074" lon="3.22126">
        <ele>159.72</ele>
        <time>2015-11-28T13:42:18Z</time>
      </trkpt>
      <trkpt lat="48.09089" lon="3.22097">
        <ele>162.12</ele>
        <time>2015-11-28T13:42:26Z</time>
      </trkpt>
      <trkpt lat="48.09106" lon="3.22074">
        <ele>164.52</ele>
        <time>2015-11-28T13:42:34Z</time>
      </trkpt>
      <trkpt lat="48.09126" lon="3.22051">
        <ele>166.93</ele>
        <time>2015-11-28T13:42:42Z</time>
      </trkpt>
      <trkpt lat="48.09147" lon="3.22034">
        <ele>168.85</ele>
        <time>2015-11-28T13:42:51Z</time>
      </trkpt>
      <trkpt lat="48.09166" lon="3.22021">
        <ele>171.25</ele>
        <time>2015-11-28T13:43:01Z</time>
      </trkpt>
      <trkpt lat="48.0919" lon="3.22007">
        <ele>173.66</ele>
        <time>2015-11-28T13:43:12Z</time>
      </trkpt>
      <trkpt lat="48.09213" lon="3.21994">
        <ele>175.58</ele>
        <time>2015-11-28T13:43:21Z</time>
      </trkpt>
      <trkpt lat="48.09238" lon="3.21982">
        <ele>177.02</ele>
        <time>2015-11-28T13:43:30Z</time>
      </trkpt>
      <trkpt lat="48.09258" lon="3.21972">
        <ele>177.5</ele>
        <time>2015-11-28T13:43:37Z</time>
      </trkpt>
      <trkpt lat="48.0928" lon="3.21959">
        <ele>178.94</ele>
        <time>2015-11-28T13:43:44Z</time>
      </trkpt>
      <trkpt lat="48.09299" lon="3.2195">
        <ele>178.94</ele>
        <time>2015-11-28T13:43:50Z</time>
      </trkpt>
      <trkpt lat="48.09322" lon="3.21939">
        <ele>179.9</ele>
        <time>2015-11-28T13:43:57Z</time>
      </trkpt>
      <trkpt lat="48.09341" lon="3.21934">
        <ele>180.38</ele>
        <time>2015-11-28T13:44:03Z</time>
      </trkpt>
      <trkpt lat="48.0936" lon="3.21929">
        <ele>181.35</ele>
        <time>2015-11-28T13:44:11Z</time>
      </trkpt>
      <trkpt lat="48.0938" lon="3.21918">
        <ele>181.35</ele>
        <time>2015-11-28T13:44:22Z</time>
      </trkpt>
      <trkpt lat="48.09389" lon="3.21911">
        <ele>180.87</ele>
        <time>2015-11-28T13:44:37Z</time>
      </trkpt>
      <trkpt lat="48.09371" lon="3.21928">
        <ele>180.87</ele>
        <time>2015-11-28T13:45:09Z</time>
      </trkpt>
      <trkpt lat="48.09367" lon="3.21934">
        <ele>180.87</ele>
        <time>2015-11-28T13:46:39Z</time>
      </trkpt>
      <trkpt lat="48.09368" lon="3.2193">
        <ele>181.35</ele>
        <time>2015-11-28T13:48:28Z</time>
      </trkpt>
      <trkpt lat="48.09385" lon="3.21916">
        <ele>180.87</ele>
        <time>2015-11-28T13:48:37Z</time>
      </trkpt>
      <trkpt lat="48.09401" lon="3.21901">
        <ele>181.35</ele>
        <time>2015-11-28T13:48:43Z</time>
      </trkpt>
      <trkpt lat="48.09418" lon="3.21885">
        <ele>180.87</ele>
        <time>2015-11-28T13:48:49Z</time>
      </trkpt>
      <trkpt lat="48.09434" lon="3.21868">
        <ele>181.35</ele>
        <time>2015-11-28T13:48:55Z</time>
      </trkpt>
      <trkpt lat="48.09453" lon="3.21853">
        <ele>182.31</ele>
        <time>2015-11-28T13:49:01Z</time>
      </trkpt>
      <trkpt lat="48.09469" lon="3.21839">
        <ele>182.79</ele>
        <time>2015-11-28T13:49:06Z</time>
      </trkpt>
      <trkpt lat="48.09484" lon="3.21825">
        <ele>182.79</ele>
        <time>2015-11-28T13:49:11Z</time>
      </trkpt>
      <trkpt lat="48.095" lon="3.21808">
        <ele>182.79</ele>
        <time>2015-11-28T13:49:16Z</time>
      </trkpt>
      <trkpt lat="48.09516" lon="3.21791">
        <ele>182.79</ele>
        <time>2015-11-28T13:49:21Z</time>
      </trkpt>
      <trkpt lat="48.09532" lon="3.21775">
        <ele>183.75</ele>
        <time>2015-11-28T13:49:26Z</time>
      </trkpt>
      <trkpt lat="48.09548" lon="3.21759">
        <ele>184.71</ele>
        <time>2015-11-28T13:49:31Z</time>
      </trkpt>
      <trkpt lat="48.09564" lon="3.21744">
        <ele>184.71</ele>
        <time>2015-11-28T13:49:36Z</time>
      </trkpt>
      <trkpt lat="48.09581" lon="3.21731">
        <ele>185.19</ele>
        <time>2015-11-28T13:49:41Z</time>
      </trkpt>
      <trkpt lat="48.096" lon="3.21715">
        <ele>185.67</ele>
        <time>2015-11-28T13:49:47Z</time>
      </trkpt>
      <trkpt lat="48.09616" lon="3.21702">
        <ele>186.15</ele>
        <time>2015-11-28T13:49:52Z</time>
      </trkpt>
      <trkpt lat="48.09633" lon="3.21688">
        <ele>186.15</ele>
        <time>2015-11-28T13:49:57Z</time>
      </trkpt>
      <trkpt lat="48.0965" lon="3.21674">
        <ele>186.15</ele>
        <time>2015-11-28T13:50:02Z</time>
      </trkpt>
      <trkpt lat="48.09667" lon="3.2166">
        <ele>185.67</ele>
        <time>2015-11-28T13:50:07Z</time>
      </trkpt>
      <trkpt lat="48.09685" lon="3.21645">
        <ele>185.19</ele>
        <time>2015-11-28T13:50:12Z</time>
      </trkpt>
      <trkpt lat="48.09703" lon="3.21628">
        <ele>185.19</ele>
        <time>2015-11-28T13:50:17Z</time>
      </trkpt>
      <trkpt lat="48.09723" lon="3.21612">
        <ele>184.23</ele>
        <time>2015-11-28T13:50:22Z</time>
      </trkpt>
      <trkpt lat="48.09739" lon="3.21598">
        <ele>183.75</ele>
        <time>2015-11-28T13:50:26Z</time>
      </trkpt>
      <trkpt lat="48.09757" lon="3.21582">
        <ele>182.79</ele>
        <time>2015-11-28T13:50:30Z</time>
      </trkpt>
      <trkpt lat="48.09775" lon="3.21567">
        <ele>182.79</ele>
        <time>2015-11-28T13:50:34Z</time>
      </trkpt>
      <trkpt lat="48.09793" lon="3.21552">
        <ele>182.31</ele>
        <time>2015-11-28T13:50:38Z</time>
      </trkpt>
      <trkpt lat="48.0981" lon="3.21537">
        <ele>183.27</ele>
        <time>2015-11-28T13:50:42Z</time>
      </trkpt>
      <trkpt lat="48.09827" lon="3.21523">
        <ele>182.79</ele>
        <time>2015-11-28T13:50:46Z</time>
      </trkpt>
      <trkpt lat="48.09844" lon="3.21508">
        <ele>182.79</ele>
        <time>2015-11-28T13:50:50Z</time>
      </trkpt>
      <trkpt lat="48.0986" lon="3.21494">
        <ele>183.27</ele>
        <time>2015-11-28T13:50:54Z</time>
      </trkpt>
      <trkpt lat="48.09878" lon="3.21477">
        <ele>183.75</ele>
        <time>2015-11-28T13:50:59Z</time>
      </trkpt>
      <trkpt lat="48.09897" lon="3.2146">
        <ele>184.71</ele>
        <time>2015-11-28T13:51:04Z</time>
      </trkpt>
      <trkpt lat="48.09913" lon="3.21446">
        <ele>184.23</ele>
        <time>2015-11-28T13:51:08Z</time>
      </trkpt>
      <trkpt lat="48.09928" lon="3.2143">
        <ele>184.23</ele>
        <time>2015-11-28T13:51:12Z</time>
      </trkpt>
      <trkpt lat="48.09946" lon="3.21413">
        <ele>184.23</ele>
        <time>2015-11-28T13:51:17Z</time>
      </trkpt>
      <trkpt lat="48.09961" lon="3.21397">
        <ele>184.23</ele>
        <time>2015-11-28T13:51:21Z</time>
      </trkpt>
      <trkpt lat="48.09976" lon="3.2138">
        <ele>183.27</ele>
        <time>2015-11-28T13:51:25Z</time>
      </trkpt>
      <trkpt lat="48.09993" lon="3.21363">
        <ele>182.79</ele>
        <time>2015-11-28T13:51:30Z</time>
      </trkpt>
      <trkpt lat="48.10013" lon="3.21372">
        <ele>182.31</ele>
        <time>2015-11-28T13:51:35Z</time>
      </trkpt>
      <trkpt lat="48.10032" lon="3.21386">
        <ele>182.31</ele>
        <time>2015-11-28T13:51:40Z</time>
      </trkpt>
      <trkpt lat="48.10052" lon="3.21399">
        <ele>181.35</ele>
        <time>2015-11-28T13:51:45Z</time>
      </trkpt>
      <trkpt lat="48.10072" lon="3.21413">
        <ele>180.87</ele>
        <time>2015-11-28T13:51:50Z</time>
      </trkpt>
      <trkpt lat="48.10088" lon="3.21424">
        <ele>180.87</ele>
        <time>2015-11-28T13:51:54Z</time>
      </trkpt>
      <trkpt lat="48.10106" lon="3.21436">
        <ele>179.9</ele>
        <time>2015-11-28T13:51:58Z</time>
      </trkpt>
      <trkpt lat="48.10126" lon="3.21449">
        <ele>179.9</ele>
        <time>2015-11-28T13:52:03Z</time>
      </trkpt>
      <trkpt lat="48.10144" lon="3.21448">
        <ele>179.42</ele>
        <time>2015-11-28T13:52:08Z</time>
      </trkpt>
      <trkpt lat="48.10147" lon="3.21421">
        <ele>179.42</ele>
        <time>2015-11-28T13:52:13Z</time>
      </trkpt>
      <trkpt lat="48.10151" lon="3.21392">
        <ele>178.94</ele>
        <time>2015-11-28T13:52:19Z</time>
      </trkpt>
      <trkpt lat="48.10154" lon="3.21365">
        <ele>178.46</ele>
        <time>2015-11-28T13:52:25Z</time>
      </trkpt>
      <trkpt lat="48.10159" lon="3.21336">
        <ele>178.46</ele>
        <time>2015-11-28T13:52:31Z</time>
      </trkpt>
      <trkpt lat="48.10163" lon="3.21305">
        <ele>176.54</ele>
        <time>2015-11-28T13:52:37Z</time>
      </trkpt>
      <trkpt lat="48.10169" lon="3.21275">
        <ele>176.06</ele>
        <time>2015-11-28T13:52:43Z</time>
      </trkpt>
      <trkpt lat="48.10177" lon="3.21246">
        <ele>175.58</ele>
        <time>2015-11-28T13:52:49Z</time>
      </trkpt>
      <trkpt lat="48.10186" lon="3.21221">
        <ele>175.1</ele>
        <time>2015-11-28T13:52:54Z</time>
      </trkpt>
      <trkpt lat="48.10198" lon="3.21193">
        <ele>174.14</ele>
        <time>2015-11-28T13:53:00Z</time>
      </trkpt>
      <trkpt lat="48.10209" lon="3.21167">
        <ele>172.69</ele>
        <time>2015-11-28T13:53:05Z</time>
      </trkpt>
      <trkpt lat="48.1022" lon="3.2114">
        <ele>170.77</ele>
        <time>2015-11-28T13:53:10Z</time>
      </trkpt>
      <trkpt lat="48.10233" lon="3.21111">
        <ele>170.29</ele>
        <time>2015-11-28T13:53:15Z</time>
      </trkpt>
      <trkpt lat="48.10255" lon="3.21096">
        <ele>170.29</ele>
        <time>2015-11-28T13:53:21Z</time>
      </trkpt>
      <trkpt lat="48.10275" lon="3.21103">
        <ele>169.81</ele>
        <time>2015-11-28T13:53:26Z</time>
      </trkpt>
      <trkpt lat="48.10293" lon="3.2111">
        <ele>169.33</ele>
        <time>2015-11-28T13:53:31Z</time>
      </trkpt>
      <trkpt lat="48.10315" lon="3.21119">
        <ele>168.85</ele>
        <time>2015-11-28T13:53:36Z</time>
      </trkpt>
      <trkpt lat="48.10335" lon="3.21129">
        <ele>168.85</ele>
        <time>2015-11-28T13:53:41Z</time>
      </trkpt>
      <trkpt lat="48.10352" lon="3.21139">
        <ele>167.89</ele>
        <time>2015-11-28T13:53:45Z</time>
      </trkpt>
      <trkpt lat="48.1037" lon="3.21148">
        <ele>166.93</ele>
        <time>2015-11-28T13:53:49Z</time>
      </trkpt>
      <trkpt lat="48.10387" lon="3.21157">
        <ele>166.45</ele>
        <time>2015-11-28T13:53:53Z</time>
      </trkpt>
      <trkpt lat="48.10408" lon="3.21168">
        <ele>166.45</ele>
        <time>2015-11-28T13:53:58Z</time>
      </trkpt>
      <trkpt lat="48.10427" lon="3.21179">
        <ele>166.45</ele>
        <time>2015-11-28T13:54:03Z</time>
      </trkpt>
      <trkpt lat="48.10449" lon="3.21188">
        <ele>165</ele>
        <time>2015-11-28T13:54:08Z</time>
      </trkpt>
      <trkpt lat="48.1047" lon="3.21198">
        <ele>165</ele>
        <time>2015-11-28T13:54:13Z</time>
      </trkpt>
      <trkpt lat="48.10491" lon="3.21208">
        <ele>164.04</ele>
        <time>2015-11-28T13:54:18Z</time>
      </trkpt>
      <trkpt lat="48.10513" lon="3.21218">
        <ele>164.04</ele>
        <time>2015-11-28T13:54:23Z</time>
      </trkpt>
      <trkpt lat="48.10533" lon="3.21226">
        <ele>164.04</ele>
        <time>2015-11-28T13:54:28Z</time>
      </trkpt>
      <trkpt lat="48.10553" lon="3.2123">
        <ele>163.56</ele>
        <time>2015-11-28T13:54:33Z</time>
      </trkpt>
      <trkpt lat="48.10574" lon="3.21236">
        <ele>163.08</ele>
        <time>2015-11-28T13:54:38Z</time>
      </trkpt>
      <trkpt lat="48.10594" lon="3.21239">
        <ele>161.64</ele>
        <time>2015-11-28T13:54:43Z</time>
      </trkpt>
      <trkpt lat="48.10614" lon="3.21243">
        <ele>161.64</ele>
        <time>2015-11-28T13:54:48Z</time>
      </trkpt>
      <trkpt lat="48.10636" lon="3.21243">
        <ele>159.72</ele>
        <time>2015-11-28T13:54:53Z</time>
      </trkpt>
      <trkpt lat="48.10654" lon="3.21241">
        <ele>158.75</ele>
        <time>2015-11-28T13:54:57Z</time>
      </trkpt>
      <trkpt lat="48.10673" lon="3.21238">
        <ele>157.79</ele>
        <time>2015-11-28T13:55:01Z</time>
      </trkpt>
      <trkpt lat="48.10692" lon="3.21237">
        <ele>156.35</ele>
        <time>2015-11-28T13:55:05Z</time>
      </trkpt>
      <trkpt lat="48.10713" lon="3.2124">
        <ele>155.39</ele>
        <time>2015-11-28T13:55:09Z</time>
      </trkpt>
      <trkpt lat="48.10733" lon="3.21244">
        <ele>154.43</ele>
        <time>2015-11-28T13:55:13Z</time>
      </trkpt>
      <trkpt lat="48.10752" lon="3.21245">
        <ele>153.95</ele>
        <time>2015-11-28T13:55:17Z</time>
      </trkpt>
      <trkpt lat="48.10769" lon="3.2124">
        <ele>152.99</ele>
        <time>2015-11-28T13:55:21Z</time>
      </trkpt>
      <trkpt lat="48.10788" lon="3.2123">
        <ele>152.99</ele>
        <time>2015-11-28T13:55:25Z</time>
      </trkpt>
      <trkpt lat="48.10805" lon="3.21223">
        <ele>151.54</ele>
        <time>2015-11-28T13:55:29Z</time>
      </trkpt>
      <trkpt lat="48.10823" lon="3.21215">
        <ele>150.1</ele>
        <time>2015-11-28T13:55:33Z</time>
      </trkpt>
      <trkpt lat="48.10842" lon="3.21218">
        <ele>151.06</ele>
        <time>2015-11-28T13:55:39Z</time>
      </trkpt>
      <trkpt lat="48.10832" lon="3.21219">
        <ele>149.62</ele>
        <time>2015-11-28T13:55:54Z</time>
      </trkpt>
      <trkpt lat="48.10853" lon="3.21227">
        <ele>147.22</ele>
        <time>2015-11-28T13:56:04Z</time>
      </trkpt>
      <trkpt lat="48.10879" lon="3.21235">
        <ele>146.74</ele>
        <time>2015-11-28T13:56:15Z</time>
      </trkpt>
      <trkpt lat="48.10903" lon="3.21241">
        <ele>146.26</ele>
        <time>2015-11-28T13:56:26Z</time>
      </trkpt>
      <trkpt lat="48.1093" lon="3.2123">
        <ele>144.82</ele>
        <time>2015-11-28T13:56:36Z</time>
      </trkpt>
      <trkpt lat="48.10947" lon="3.21249">
        <ele>143.85</ele>
        <time>2015-11-28T13:56:42Z</time>
      </trkpt>
      <trkpt lat="48.1096" lon="3.21277">
        <ele>142.41</ele>
        <time>2015-11-28T13:56:48Z</time>
      </trkpt>
      <trkpt lat="48.10979" lon="3.21297">
        <ele>141.45</ele>
        <time>2015-11-28T13:56:53Z</time>
      </trkpt>
      <trkpt lat="48.10996" lon="3.21315">
        <ele>140.97</ele>
        <time>2015-11-28T13:56:58Z</time>
      </trkpt>
      <trkpt lat="48.11014" lon="3.21334">
        <ele>139.53</ele>
        <time>2015-11-28T13:57:03Z</time>
      </trkpt>
      <trkpt lat="48.11031" lon="3.21354">
        <ele>138.57</ele>
        <time>2015-11-28T13:57:07Z</time>
      </trkpt>
      <trkpt lat="48.11052" lon="3.21376">
        <ele>138.09</ele>
        <time>2015-11-28T13:57:16Z</time>
      </trkpt>
      <trkpt lat="48.1107" lon="3.21401">
        <ele>136.16</ele>
        <time>2015-11-28T13:57:23Z</time>
      </trkpt>
      <trkpt lat="48.11096" lon="3.21424">
        <ele>135.2</ele>
        <time>2015-11-28T13:57:37Z</time>
      </trkpt>
      <trkpt lat="48.11115" lon="3.21444">
        <ele>133.76</ele>
        <time>2015-11-28T13:57:44Z</time>
      </trkpt>
      <trkpt lat="48.11132" lon="3.21465">
        <ele>132.8</ele>
        <time>2015-11-28T13:57:49Z</time>
      </trkpt>
      <trkpt lat="48.11147" lon="3.21487">
        <ele>131.84</ele>
        <time>2015-11-28T13:57:54Z</time>
      </trkpt>
      <trkpt lat="48.11163" lon="3.21509">
        <ele>131.36</ele>
        <time>2015-11-28T13:57:58Z</time>
      </trkpt>
      <trkpt lat="48.11177" lon="3.21531">
        <ele>130.4</ele>
        <time>2015-11-28T13:58:02Z</time>
      </trkpt>
      <trkpt lat="48.11192" lon="3.21555">
        <ele>129.43</ele>
        <time>2015-11-28T13:58:06Z</time>
      </trkpt>
      <trkpt lat="48.11207" lon="3.21579">
        <ele>128.95</ele>
        <time>2015-11-28T13:58:10Z</time>
      </trkpt>
      <trkpt lat="48.11222" lon="3.21603">
        <ele>127.99</ele>
        <time>2015-11-28T13:58:14Z</time>
      </trkpt>
      <trkpt lat="48.11238" lon="3.21627">
        <ele>127.03</ele>
        <time>2015-11-28T13:58:18Z</time>
      </trkpt>
      <trkpt lat="48.11251" lon="3.21647">
        <ele>125.59</ele>
        <time>2015-11-28T13:58:21Z</time>
      </trkpt>
      <trkpt lat="48.11267" lon="3.21672">
        <ele>125.11</ele>
        <time>2015-11-28T13:58:25Z</time>
      </trkpt>
      <trkpt lat="48.11281" lon="3.217">
        <ele>124.63</ele>
        <time>2015-11-28T13:58:29Z</time>
      </trkpt>
      <trkpt lat="48.11291" lon="3.21726">
        <ele>124.15</ele>
        <time>2015-11-28T13:58:33Z</time>
      </trkpt>
      <trkpt lat="48.11299" lon="3.2175">
        <ele>123.67</ele>
        <time>2015-11-28T13:58:39Z</time>
      </trkpt>
      <trkpt lat="48.11308" lon="3.2178">
        <ele>123.19</ele>
        <time>2015-11-28T13:58:45Z</time>
      </trkpt>
      <trkpt lat="48.11314" lon="3.21807">
        <ele>122.71</ele>
        <time>2015-11-28T13:58:50Z</time>
      </trkpt>
      <trkpt lat="48.11321" lon="3.21837">
        <ele>121.74</ele>
        <time>2015-11-28T13:58:55Z</time>
      </trkpt>
      <trkpt lat="48.1133" lon="3.21867">
        <ele>121.74</ele>
        <time>2015-11-28T13:59:00Z</time>
      </trkpt>
      <trkpt lat="48.11337" lon="3.21893">
        <ele>121.26</ele>
        <time>2015-11-28T13:59:04Z</time>
      </trkpt>
      <trkpt lat="48.11347" lon="3.21916">
        <ele>120.78</ele>
        <time>2015-11-28T13:59:08Z</time>
      </trkpt>
      <trkpt lat="48.11361" lon="3.21937">
        <ele>120.78</ele>
        <time>2015-11-28T13:59:12Z</time>
      </trkpt>
      <trkpt lat="48.11374" lon="3.21957">
        <ele>120.3</ele>
        <time>2015-11-28T13:59:16Z</time>
      </trkpt>
      <trkpt lat="48.11389" lon="3.21981">
        <ele>120.78</ele>
        <time>2015-11-28T13:59:21Z</time>
      </trkpt>
      <trkpt lat="48.11405" lon="3.22002">
        <ele>119.82</ele>
        <time>2015-11-28T13:59:26Z</time>
      </trkpt>
      <trkpt lat="48.11422" lon="3.22015">
        <ele>119.34</ele>
        <time>2015-11-28T13:59:31Z</time>
      </trkpt>
      <trkpt lat="48.11444" lon="3.22021">
        <ele>118.86</ele>
        <time>2015-11-28T13:59:37Z</time>
      </trkpt>
      <trkpt lat="48.11467" lon="3.22016">
        <ele>119.82</ele>
        <time>2015-11-28T13:59:43Z</time>
      </trkpt>
      <trkpt lat="48.11488" lon="3.22009">
        <ele>121.26</ele>
        <time>2015-11-28T13:59:49Z</time>
      </trkpt>
      <trkpt lat="48.11512" lon="3.22">
        <ele>122.22</ele>
        <time>2015-11-28T13:59:55Z</time>
      </trkpt>
      <trkpt lat="48.11533" lon="3.2199">
        <ele>122.71</ele>
        <time>2015-11-28T14:00:01Z</time>
      </trkpt>
      <trkpt lat="48.11554" lon="3.21989">
        <ele>122.71</ele>
        <time>2015-11-28T14:00:07Z</time>
      </trkpt>
      <trkpt lat="48.11576" lon="3.21989">
        <ele>119.82</ele>
        <time>2015-11-28T14:00:12Z</time>
      </trkpt>
      <trkpt lat="48.11599" lon="3.21989">
        <ele>117.9</ele>
        <time>2015-11-28T14:00:16Z</time>
      </trkpt>
      <trkpt lat="48.11622" lon="3.2199">
        <ele>115.98</ele>
        <time>2015-11-28T14:00:20Z</time>
      </trkpt>
      <trkpt lat="48.11646" lon="3.21989">
        <ele>113.09</ele>
        <time>2015-11-28T14:00:24Z</time>
      </trkpt>
      <trkpt lat="48.11666" lon="3.2199">
        <ele>112.13</ele>
        <time>2015-11-28T14:00:28Z</time>
      </trkpt>
      <trkpt lat="48.11669" lon="3.21999">
        <ele>111.65</ele>
        <time>2015-11-28T14:00:41Z</time>
      </trkpt>
      <trkpt lat="48.11664" lon="3.22026">
        <ele>111.17</ele>
        <time>2015-11-28T14:00:47Z</time>
      </trkpt>
      <trkpt lat="48.11658" lon="3.22056">
        <ele>110.21</ele>
        <time>2015-11-28T14:00:52Z</time>
      </trkpt>
      <trkpt lat="48.11653" lon="3.22089">
        <ele>109.73</ele>
        <time>2015-11-28T14:00:57Z</time>
      </trkpt>
      <trkpt lat="48.11649" lon="3.22121">
        <ele>109.25</ele>
        <time>2015-11-28T14:01:02Z</time>
      </trkpt>
      <trkpt lat="48.11644" lon="3.22153">
        <ele>109.25</ele>
        <time>2015-11-28T14:01:07Z</time>
      </trkpt>
      <trkpt lat="48.11641" lon="3.22186">
        <ele>109.73</ele>
        <time>2015-11-28T14:01:12Z</time>
      </trkpt>
      <trkpt lat="48.11637" lon="3.22217">
        <ele>109.25</ele>
        <time>2015-11-28T14:01:17Z</time>
      </trkpt>
      <trkpt lat="48.11634" lon="3.22246">
        <ele>109.73</ele>
        <time>2015-11-28T14:01:22Z</time>
      </trkpt>
      <trkpt lat="48.11631" lon="3.22274">
        <ele>110.69</ele>
        <time>2015-11-28T14:01:28Z</time>
      </trkpt>
      <trkpt lat="48.1163" lon="3.22302">
        <ele>111.17</ele>
        <time>2015-11-28T14:01:34Z</time>
      </trkpt>
      <trkpt lat="48.11629" lon="3.22331">
        <ele>111.17</ele>
        <time>2015-11-28T14:01:40Z</time>
      </trkpt>
      <trkpt lat="48.11627" lon="3.2236">
        <ele>110.69</ele>
        <time>2015-11-28T14:01:45Z</time>
      </trkpt>
      <trkpt lat="48.11627" lon="3.22388">
        <ele>110.21</ele>
        <time>2015-11-28T14:01:50Z</time>
      </trkpt>
      <trkpt lat="48.11626" lon="3.22418">
        <ele>110.21</ele>
        <time>2015-11-28T14:01:56Z</time>
      </trkpt>
      <trkpt lat="48.11626" lon="3.22447">
        <ele>110.21</ele>
        <time>2015-11-28T14:02:02Z</time>
      </trkpt>
      <trkpt lat="48.11624" lon="3.22477">
        <ele>110.69</ele>
        <time>2015-11-28T14:02:09Z</time>
      </trkpt>
      <trkpt lat="48.11623" lon="3.22506">
        <ele>111.17</ele>
        <time>2015-11-28T14:02:16Z</time>
      </trkpt>
      <trkpt lat="48.1162" lon="3.22533">
        <ele>112.61</ele>
        <time>2015-11-28T14:02:22Z</time>
      </trkpt>
      <trkpt lat="48.11612" lon="3.22561">
        <ele>114.05</ele>
        <time>2015-11-28T14:02:28Z</time>
      </trkpt>
      <trkpt lat="48.11598" lon="3.22582">
        <ele>115.5</ele>
        <time>2015-11-28T14:02:35Z</time>
      </trkpt>
      <trkpt lat="48.11583" lon="3.22601">
        <ele>115.98</ele>
        <time>2015-11-28T14:02:42Z</time>
      </trkpt>
      <trkpt lat="48.11568" lon="3.22624">
        <ele>115.98</ele>
        <time>2015-11-28T14:02:49Z</time>
      </trkpt>
      <trkpt lat="48.11555" lon="3.22646">
        <ele>115.98</ele>
        <time>2015-11-28T14:02:55Z</time>
      </trkpt>
      <trkpt lat="48.11546" lon="3.22672">
        <ele>115.98</ele>
        <time>2015-11-28T14:03:01Z</time>
      </trkpt>
      <trkpt lat="48.11537" lon="3.22697">
        <ele>116.46</ele>
        <time>2015-11-28T14:03:07Z</time>
      </trkpt>
      <trkpt lat="48.11529" lon="3.22723">
        <ele>116.94</ele>
        <time>2015-11-28T14:03:13Z</time>
      </trkpt>
      <trkpt lat="48.11519" lon="3.22748">
        <ele>116.94</ele>
        <time>2015-11-28T14:03:19Z</time>
      </trkpt>
      <trkpt lat="48.11509" lon="3.22772">
        <ele>116.94</ele>
        <time>2015-11-28T14:03:25Z</time>
      </trkpt>
      <trkpt lat="48.11497" lon="3.22794">
        <ele>117.9</ele>
        <time>2015-11-28T14:03:31Z</time>
      </trkpt>
      <trkpt lat="48.11484" lon="3.22813">
        <ele>119.34</ele>
        <time>2015-11-28T14:03:37Z</time>
      </trkpt>
      <trkpt lat="48.11468" lon="3.22835">
        <ele>119.82</ele>
        <time>2015-11-28T14:03:44Z</time>
      </trkpt>
      <trkpt lat="48.11453" lon="3.22854">
        <ele>120.3</ele>
        <time>2015-11-28T14:03:50Z</time>
      </trkpt>
      <trkpt lat="48.1144" lon="3.22872">
        <ele>120.3</ele>
        <time>2015-11-28T14:03:56Z</time>
      </trkpt>
      <trkpt lat="48.11426" lon="3.2289">
        <ele>121.26</ele>
        <time>2015-11-28T14:04:02Z</time>
      </trkpt>
      <trkpt lat="48.11411" lon="3.22909">
        <ele>122.22</ele>
        <time>2015-11-28T14:04:08Z</time>
      </trkpt>
      <trkpt lat="48.11397" lon="3.22926">
        <ele>121.26</ele>
        <time>2015-11-28T14:04:14Z</time>
      </trkpt>
      <trkpt lat="48.11381" lon="3.22941">
        <ele>120.78</ele>
        <time>2015-11-28T14:04:20Z</time>
      </trkpt>
      <trkpt lat="48.11361" lon="3.22954">
        <ele>117.9</ele>
        <time>2015-11-28T14:04:25Z</time>
      </trkpt>
      <trkpt lat="48.11341" lon="3.22968">
        <ele>116.46</ele>
        <time>2015-11-28T14:04:29Z</time>
      </trkpt>
      <trkpt lat="48.11323" lon="3.22981">
        <ele>116.94</ele>
        <time>2015-11-28T14:04:34Z</time>
      </trkpt>
      <trkpt lat="48.11313" lon="3.23005">
        <ele>116.46</ele>
        <time>2015-11-28T14:04:40Z</time>
      </trkpt>
      <trkpt lat="48.11314" lon="3.23035">
        <ele>115.01</ele>
        <time>2015-11-28T14:04:45Z</time>
      </trkpt>
      <trkpt lat="48.1132" lon="3.23065">
        <ele>115.5</ele>
        <time>2015-11-28T14:04:50Z</time>
      </trkpt>
      <trkpt lat="48.11322" lon="3.23096">
        <ele>114.53</ele>
        <time>2015-11-28T14:04:55Z</time>
      </trkpt>
      <trkpt lat="48.11323" lon="3.23125">
        <ele>115.5</ele>
        <time>2015-11-28T14:05:00Z</time>
      </trkpt>
      <trkpt lat="48.11324" lon="3.23151">
        <ele>114.53</ele>
        <time>2015-11-28T14:05:07Z</time>
      </trkpt>
      <trkpt lat="48.11329" lon="3.23177">
        <ele>112.61</ele>
        <time>2015-11-28T14:05:13Z</time>
      </trkpt>
      <trkpt lat="48.11338" lon="3.23206">
        <ele>112.13</ele>
        <time>2015-11-28T14:05:19Z</time>
      </trkpt>
      <trkpt lat="48.11347" lon="3.23232">
        <ele>110.21</ele>
        <time>2015-11-28T14:05:25Z</time>
      </trkpt>
      <trkpt lat="48.11358" lon="3.23262">
        <ele>108.29</ele>
        <time>2015-11-28T14:05:31Z</time>
      </trkpt>
      <trkpt lat="48.11365" lon="3.23287">
        <ele>106.36</ele>
        <time>2015-11-28T14:05:35Z</time>
      </trkpt>
      <trkpt lat="48.11369" lon="3.23316">
        <ele>105.88</ele>
        <time>2015-11-28T14:05:39Z</time>
      </trkpt>
      <trkpt lat="48.11368" lon="3.23346">
        <ele>103.96</ele>
        <time>2015-11-28T14:05:43Z</time>
      </trkpt>
      <trkpt lat="48.11366" lon="3.23373">
        <ele>102.52</ele>
        <time>2015-11-28T14:05:46Z</time>
      </trkpt>
      <trkpt lat="48.11373" lon="3.23405">
        <ele>100.6</ele>
        <time>2015-11-28T14:05:50Z</time>
      </trkpt>
      <trkpt lat="48.11396" lon="3.23424">
        <ele>98.67</ele>
        <time>2015-11-28T14:05:54Z</time>
      </trkpt>
      <trkpt lat="48.11416" lon="3.23439">
        <ele>97.23</ele>
        <time>2015-11-28T14:05:57Z</time>
      </trkpt>
      <trkpt lat="48.11434" lon="3.23454">
        <ele>96.27</ele>
        <time>2015-11-28T14:06:00Z</time>
      </trkpt>
      <trkpt lat="48.11456" lon="3.2347">
        <ele>98.67</ele>
        <time>2015-11-28T14:06:04Z</time>
      </trkpt>
      <trkpt lat="48.11475" lon="3.23485">
        <ele>99.15</ele>
        <time>2015-11-28T14:06:09Z</time>
      </trkpt>
      <trkpt lat="48.11493" lon="3.23498">
        <ele>100.11</ele>
        <time>2015-11-28T14:06:16Z</time>
      </trkpt>
      <trkpt lat="48.11508" lon="3.23515">
        <ele>101.08</ele>
        <time>2015-11-28T14:06:27Z</time>
      </trkpt>
      <trkpt lat="48.1152" lon="3.23541">
        <ele>102.52</ele>
        <time>2015-11-28T14:06:35Z</time>
      </trkpt>
      <trkpt lat="48.11528" lon="3.23566">
        <ele>104.92</ele>
        <time>2015-11-28T14:06:43Z</time>
      </trkpt>
      <trkpt lat="48.1154" lon="3.23587">
        <ele>106.84</ele>
        <time>2015-11-28T14:06:52Z</time>
      </trkpt>
      <trkpt lat="48.11554" lon="3.23605">
        <ele>109.73</ele>
        <time>2015-11-28T14:07:01Z</time>
      </trkpt>
      <trkpt lat="48.11569" lon="3.23622">
        <ele>113.09</ele>
        <time>2015-11-28T14:07:10Z</time>
      </trkpt>
      <trkpt lat="48.11586" lon="3.2364">
        <ele>116.46</ele>
        <time>2015-11-28T14:07:20Z</time>
      </trkpt>
      <trkpt lat="48.11604" lon="3.2365">
        <ele>119.34</ele>
        <time>2015-11-28T14:07:30Z</time>
      </trkpt>
      <trkpt lat="48.11622" lon="3.23659">
        <ele>122.71</ele>
        <time>2015-11-28T14:07:40Z</time>
      </trkpt>
      <trkpt lat="48.11635" lon="3.23681">
        <ele>126.07</ele>
        <time>2015-11-28T14:07:51Z</time>
      </trkpt>
      <trkpt lat="48.11646" lon="3.2371">
        <ele>130.4</ele>
        <time>2015-11-28T14:08:04Z</time>
      </trkpt>
      <trkpt lat="48.11661" lon="3.23735">
        <ele>132.8</ele>
        <time>2015-11-28T14:08:15Z</time>
      </trkpt>
      <trkpt lat="48.11676" lon="3.2375">
        <ele>136.16</ele>
        <time>2015-11-28T14:08:26Z</time>
      </trkpt>
      <trkpt lat="48.11693" lon="3.23762">
        <ele>138.57</ele>
        <time>2015-11-28T14:08:38Z</time>
      </trkpt>
      <trkpt lat="48.1171" lon="3.23777">
        <ele>141.93</ele>
        <time>2015-11-28T14:08:51Z</time>
      </trkpt>
      <trkpt lat="48.11728" lon="3.23787">
        <ele>146.26</ele>
        <time>2015-11-28T14:09:04Z</time>
      </trkpt>
      <trkpt lat="48.11747" lon="3.23798">
        <ele>148.66</ele>
        <time>2015-11-28T14:09:17Z</time>
      </trkpt>
      <trkpt lat="48.11766" lon="3.23809">
        <ele>152.99</ele>
        <time>2015-11-28T14:09:31Z</time>
      </trkpt>
      <trkpt lat="48.11788" lon="3.23818">
        <ele>156.35</ele>
        <time>2015-11-28T14:09:46Z</time>
      </trkpt>
      <trkpt lat="48.1181" lon="3.23815">
        <ele>158.75</ele>
        <time>2015-11-28T14:09:59Z</time>
      </trkpt>
      <trkpt lat="48.1183" lon="3.23807">
        <ele>162.6</ele>
        <time>2015-11-28T14:10:11Z</time>
      </trkpt>
      <trkpt lat="48.11849" lon="3.23801">
        <ele>165</ele>
        <time>2015-11-28T14:10:20Z</time>
      </trkpt>
      <trkpt lat="48.11869" lon="3.23798">
        <ele>165.96</ele>
        <time>2015-11-28T14:10:28Z</time>
      </trkpt>
      <trkpt lat="48.1189" lon="3.23794">
        <ele>167.41</ele>
        <time>2015-11-28T14:10:37Z</time>
      </trkpt>
      <trkpt lat="48.1191" lon="3.23789">
        <ele>168.37</ele>
        <time>2015-11-28T14:10:45Z</time>
      </trkpt>
      <trkpt lat="48.1193" lon="3.23786">
        <ele>169.33</ele>
        <time>2015-11-28T14:10:52Z</time>
      </trkpt>
      <trkpt lat="48.11949" lon="3.23798">
        <ele>171.25</ele>
        <time>2015-11-28T14:11:01Z</time>
      </trkpt>
      <trkpt lat="48.11968" lon="3.23808">
        <ele>172.69</ele>
        <time>2015-11-28T14:11:10Z</time>
      </trkpt>
      <trkpt lat="48.11987" lon="3.23811">
        <ele>173.17</ele>
        <time>2015-11-28T14:11:18Z</time>
      </trkpt>
      <trkpt lat="48.12006" lon="3.23814">
        <ele>174.14</ele>
        <time>2015-11-28T14:11:26Z</time>
      </trkpt>
      <trkpt lat="48.12013" lon="3.23825">
        <ele>175.1</ele>
        <time>2015-11-28T14:14:36Z</time>
      </trkpt>
      <trkpt lat="48.11998" lon="3.23839">
        <ele>173.66</ele>
        <time>2015-11-28T14:16:00Z</time>
      </trkpt>
      <trkpt lat="48.11985" lon="3.23851">
        <ele>173.17</ele>
        <time>2015-11-28T14:16:13Z</time>
      </trkpt>
      <trkpt lat="48.11966" lon="3.23871">
        <ele>173.17</ele>
        <time>2015-11-28T14:16:27Z</time>
      </trkpt>
      <trkpt lat="48.11939" lon="3.23888">
        <ele>173.17</ele>
        <time>2015-11-28T14:16:40Z</time>
      </trkpt>
      <trkpt lat="48.11916" lon="3.23898">
        <ele>173.17</ele>
        <time>2015-11-28T14:16:48Z</time>
      </trkpt>
      <trkpt lat="48.11889" lon="3.23905">
        <ele>173.66</ele>
        <time>2015-11-28T14:17:11Z</time>
      </trkpt>
      <trkpt lat="48.1187" lon="3.23903">
        <ele>172.69</ele>
        <time>2015-11-28T14:17:19Z</time>
      </trkpt>
      <trkpt lat="48.11851" lon="3.23896">
        <ele>170.77</ele>
        <time>2015-11-28T14:17:25Z</time>
      </trkpt>
      <trkpt lat="48.11831" lon="3.23904">
        <ele>168.37</ele>
        <time>2015-11-28T14:17:31Z</time>
      </trkpt>
      <trkpt lat="48.1183" lon="3.23931">
        <ele>168.37</ele>
        <time>2015-11-28T14:17:47Z</time>
      </trkpt>
      <trkpt lat="48.11843" lon="3.23957">
        <ele>171.73</ele>
        <time>2015-11-28T14:18:35Z</time>
      </trkpt>
      <trkpt lat="48.1183" lon="3.23986">
        <ele>169.33</ele>
        <time>2015-11-28T14:18:49Z</time>
      </trkpt>
      <trkpt lat="48.1181" lon="3.24017">
        <ele>165</ele>
        <time>2015-11-28T14:19:05Z</time>
      </trkpt>
      <trkpt lat="48.11819" lon="3.2403">
        <ele>169.33</ele>
        <time>2015-11-28T14:19:35Z</time>
      </trkpt>
      <trkpt lat="48.11838" lon="3.24022">
        <ele>173.66</ele>
        <time>2015-11-28T14:20:02Z</time>
      </trkpt>
      <trkpt lat="48.11858" lon="3.24013">
        <ele>174.62</ele>
        <time>2015-11-28T14:20:16Z</time>
      </trkpt>
      <trkpt lat="48.11875" lon="3.24024">
        <ele>175.58</ele>
        <time>2015-11-28T14:20:25Z</time>
      </trkpt>
      <trkpt lat="48.11885" lon="3.24052">
        <ele>176.06</ele>
        <time>2015-11-28T14:20:58Z</time>
      </trkpt>
      <trkpt lat="48.11878" lon="3.24076">
        <ele>176.06</ele>
        <time>2015-11-28T14:21:06Z</time>
      </trkpt>
      <trkpt lat="48.11862" lon="3.24097">
        <ele>175.58</ele>
        <time>2015-11-28T14:21:13Z</time>
      </trkpt>
      <trkpt lat="48.11847" lon="3.24114">
        <ele>175.1</ele>
        <time>2015-11-28T14:21:21Z</time>
      </trkpt>
      <trkpt lat="48.11829" lon="3.24125">
        <ele>173.17</ele>
        <time>2015-11-28T14:21:29Z</time>
      </trkpt>
      <trkpt lat="48.1181" lon="3.24138">
        <ele>168.85</ele>
        <time>2015-11-28T14:21:36Z</time>
      </trkpt>
      <trkpt lat="48.1179" lon="3.24146">
        <ele>165.48</ele>
        <time>2015-11-28T14:21:41Z</time>
      </trkpt>
      <trkpt lat="48.11769" lon="3.24154">
        <ele>163.56</ele>
        <time>2015-11-28T14:21:46Z</time>
      </trkpt>
      <trkpt lat="48.11767" lon="3.24182">
        <ele>164.52</ele>
        <time>2015-11-28T14:22:44Z</time>
      </trkpt>
      <trkpt lat="48.11771" lon="3.24207">
        <ele>164.04</ele>
        <time>2015-11-28T14:22:53Z</time>
      </trkpt>
      <trkpt lat="48.1179" lon="3.24207">
        <ele>166.93</ele>
        <time>2015-11-28T14:23:02Z</time>
      </trkpt>
      <trkpt lat="48.11802" lon="3.24228">
        <ele>170.29</ele>
        <time>2015-11-28T14:23:12Z</time>
      </trkpt>
      <trkpt lat="48.11796" lon="3.24249">
        <ele>173.66</ele>
        <time>2015-11-28T14:23:33Z</time>
      </trkpt>
      <trkpt lat="48.11775" lon="3.24268">
        <ele>173.17</ele>
        <time>2015-11-28T14:24:00Z</time>
      </trkpt>
      <trkpt lat="48.11776" lon="3.24301">
        <ele>173.66</ele>
        <time>2015-11-28T14:24:10Z</time>
      </trkpt>
      <trkpt lat="48.11784" lon="3.24332">
        <ele>174.62</ele>
        <time>2015-11-28T14:24:21Z</time>
      </trkpt>
      <trkpt lat="48.11797" lon="3.24359">
        <ele>177.98</ele>
        <time>2015-11-28T14:24:36Z</time>
      </trkpt>
      <trkpt lat="48.11815" lon="3.24392">
        <ele>180.38</ele>
        <time>2015-11-28T14:27:55Z</time>
      </trkpt>
      <trkpt lat="48.11807" lon="3.24425">
        <ele>178.94</ele>
        <time>2015-11-28T14:28:09Z</time>
      </trkpt>
      <trkpt lat="48.11818" lon="3.24453">
        <ele>179.42</ele>
        <time>2015-11-28T14:28:18Z</time>
      </trkpt>
      <trkpt lat="48.11828" lon="3.24478">
        <ele>179.9</ele>
        <time>2015-11-28T14:28:30Z</time>
      </trkpt>
      <trkpt lat="48.11843" lon="3.2447">
        <ele>181.35</ele>
        <time>2015-11-28T14:28:56Z</time>
      </trkpt>
      <trkpt lat="48.1184" lon="3.24494">
        <ele>180.87</ele>
        <time>2015-11-28T14:29:08Z</time>
      </trkpt>
      <trkpt lat="48.11827" lon="3.24519">
        <ele>179.9</ele>
        <time>2015-11-28T14:29:19Z</time>
      </trkpt>
      <trkpt lat="48.1182" lon="3.24522">
        <ele>178.46</ele>
        <time>2015-11-28T14:29:34Z</time>
      </trkpt>
      <trkpt lat="48.11822" lon="3.24495">
        <ele>179.42</ele>
        <time>2015-11-28T14:29:48Z</time>
      </trkpt>
      <trkpt lat="48.11836" lon="3.24479">
        <ele>180.87</ele>
        <time>2015-11-28T14:30:01Z</time>
      </trkpt>
      <trkpt lat="48.11842" lon="3.24478">
        <ele>179.9</ele>
        <time>2015-11-28T14:30:15Z</time>
      </trkpt>
      <trkpt lat="48.11837" lon="3.24508">
        <ele>180.38</ele>
        <time>2015-11-28T14:30:34Z</time>
      </trkpt>
      <trkpt lat="48.11821" lon="3.24527">
        <ele>178.46</ele>
        <time>2015-11-28T14:30:42Z</time>
      </trkpt>
      <trkpt lat="48.11802" lon="3.24546">
        <ele>177.02</ele>
        <time>2015-11-28T14:31:42Z</time>
      </trkpt>
      <trkpt lat="48.11786" lon="3.24557">
        <ele>175.58</ele>
        <time>2015-11-28T14:31:48Z</time>
      </trkpt>
      <trkpt lat="48.11778" lon="3.24583">
        <ele>176.54</ele>
        <time>2015-11-28T14:31:57Z</time>
      </trkpt>
      <trkpt lat="48.11776" lon="3.24612">
        <ele>176.54</ele>
        <time>2015-11-28T14:32:08Z</time>
      </trkpt>
      <trkpt lat="48.11761" lon="3.24631">
        <ele>173.66</ele>
        <time>2015-11-28T14:32:19Z</time>
      </trkpt>
      <trkpt lat="48.11754" lon="3.24668">
        <ele>175.1</ele>
        <time>2015-11-28T14:32:27Z</time>
      </trkpt>
      <trkpt lat="48.1174" lon="3.24705">
        <ele>176.54</ele>
        <time>2015-11-28T14:32:38Z</time>
      </trkpt>
      <trkpt lat="48.11723" lon="3.24729">
        <ele>175.1</ele>
        <time>2015-11-28T14:32:51Z</time>
      </trkpt>
      <trkpt lat="48.1172" lon="3.24768">
        <ele>174.62</ele>
        <time>2015-11-28T14:33:07Z</time>
      </trkpt>
      <trkpt lat="48.11731" lon="3.24801">
        <ele>175.58</ele>
        <time>2015-11-28T14:33:19Z</time>
      </trkpt>
      <trkpt lat="48.11741" lon="3.24829">
        <ele>177.5</ele>
        <time>2015-11-28T14:33:31Z</time>
      </trkpt>
      <trkpt lat="48.11747" lon="3.24867">
        <ele>175.1</ele>
        <time>2015-11-28T14:33:58Z</time>
      </trkpt>
      <trkpt lat="48.1176" lon="3.24891">
        <ele>176.06</ele>
        <time>2015-11-28T14:34:13Z</time>
      </trkpt>
      <trkpt lat="48.11779" lon="3.24898">
        <ele>176.54</ele>
        <time>2015-11-28T14:34:25Z</time>
      </trkpt>
      <trkpt lat="48.11786" lon="3.2492">
        <ele>171.73</ele>
        <time>2015-11-28T14:34:34Z</time>
      </trkpt>
      <trkpt lat="48.11803" lon="3.24947">
        <ele>167.89</ele>
        <time>2015-11-28T14:34:46Z</time>
      </trkpt>
      <trkpt lat="48.11829" lon="3.24963">
        <ele>169.33</ele>
        <time>2015-11-28T14:35:03Z</time>
      </trkpt>
      <trkpt lat="48.11859" lon="3.24993">
        <ele>170.77</ele>
        <time>2015-11-28T14:37:17Z</time>
      </trkpt>
      <trkpt lat="48.11872" lon="3.25014">
        <ele>170.29</ele>
        <time>2015-11-28T14:37:28Z</time>
      </trkpt>
      <trkpt lat="48.11883" lon="3.25039">
        <ele>168.85</ele>
        <time>2015-11-28T14:37:36Z</time>
      </trkpt>
      <trkpt lat="48.11892" lon="3.25063">
        <ele>167.89</ele>
        <time>2015-11-28T14:37:43Z</time>
      </trkpt>
      <trkpt lat="48.11901" lon="3.25087">
        <ele>167.89</ele>
        <time>2015-11-28T14:37:50Z</time>
      </trkpt>
      <trkpt lat="48.11911" lon="3.25111">
        <ele>168.37</ele>
        <time>2015-11-28T14:37:57Z</time>
      </trkpt>
      <trkpt lat="48.11919" lon="3.25135">
        <ele>166.45</ele>
        <time>2015-11-28T14:38:03Z</time>
      </trkpt>
      <trkpt lat="48.11928" lon="3.2516">
        <ele>165.96</ele>
        <time>2015-11-28T14:38:09Z</time>
      </trkpt>
      <trkpt lat="48.1194" lon="3.25182">
        <ele>165</ele>
        <time>2015-11-28T14:38:14Z</time>
      </trkpt>
      <trkpt lat="48.11954" lon="3.25208">
        <ele>164.04</ele>
        <time>2015-11-28T14:38:19Z</time>
      </trkpt>
      <trkpt lat="48.11965" lon="3.25235">
        <ele>161.64</ele>
        <time>2015-11-28T14:38:24Z</time>
      </trkpt>
      <trkpt lat="48.1196" lon="3.25261">
        <ele>158.75</ele>
        <time>2015-11-28T14:38:29Z</time>
      </trkpt>
      <trkpt lat="48.11945" lon="3.25279">
        <ele>158.75</ele>
        <time>2015-11-28T14:38:34Z</time>
      </trkpt>
      <trkpt lat="48.11928" lon="3.25301">
        <ele>155.87</ele>
        <time>2015-11-28T14:38:39Z</time>
      </trkpt>
      <trkpt lat="48.1191" lon="3.25323">
        <ele>153.47</ele>
        <time>2015-11-28T14:38:44Z</time>
      </trkpt>
      <trkpt lat="48.11914" lon="3.25342">
        <ele>152.99</ele>
        <time>2015-11-28T14:38:54Z</time>
      </trkpt>
      <trkpt lat="48.11936" lon="3.25345">
        <ele>151.54</ele>
        <time>2015-11-28T14:38:59Z</time>
      </trkpt>
      <trkpt lat="48.11957" lon="3.25345">
        <ele>149.14</ele>
        <time>2015-11-28T14:39:04Z</time>
      </trkpt>
      <trkpt lat="48.11978" lon="3.25351">
        <ele>144.82</ele>
        <time>2015-11-28T14:39:14Z</time>
      </trkpt>
      <trkpt lat="48.12001" lon="3.25367">
        <ele>140.49</ele>
        <time>2015-11-28T14:39:43Z</time>
      </trkpt>
      <trkpt lat="48.12018" lon="3.25381">
        <ele>136.16</ele>
        <time>2015-11-28T14:39:55Z</time>
      </trkpt>
      <trkpt lat="48.12039" lon="3.2537">
        <ele>136.16</ele>
        <time>2015-11-28T14:40:16Z</time>
      </trkpt>
      <trkpt lat="48.1205" lon="3.25381">
        <ele>132.32</ele>
        <time>2015-11-28T14:42:28Z</time>
      </trkpt>
      <trkpt lat="48.12047" lon="3.25416">
        <ele>132.32</ele>
        <time>2015-11-28T14:45:37Z</time>
      </trkpt>
      <trkpt lat="48.12027" lon="3.25441">
        <ele>128.47</ele>
        <time>2015-11-28T14:45:50Z</time>
      </trkpt>
      <trkpt lat="48.12006" lon="3.25476">
        <ele>125.59</ele>
        <time>2015-11-28T14:45:59Z</time>
      </trkpt>
      <trkpt lat="48.11992" lon="3.25511">
        <ele>122.71</ele>
        <time>2015-11-28T14:46:09Z</time>
      </trkpt>
      <trkpt lat="48.11968" lon="3.25545">
        <ele>121.74</ele>
        <time>2015-11-28T14:46:16Z</time>
      </trkpt>
      <trkpt lat="48.1195" lon="3.25577">
        <ele>119.34</ele>
        <time>2015-11-28T14:46:22Z</time>
      </trkpt>
      <trkpt lat="48.11926" lon="3.25599">
        <ele>116.94</ele>
        <time>2015-11-28T14:46:32Z</time>
      </trkpt>
      <trkpt lat="48.11888" lon="3.25613">
        <ele>114.05</ele>
        <time>2015-11-28T14:46:42Z</time>
      </trkpt>
      <trkpt lat="48.1186" lon="3.2562">
        <ele>111.65</ele>
        <time>2015-11-28T14:46:47Z</time>
      </trkpt>
      <trkpt lat="48.11837" lon="3.25633">
        <ele>110.21</ele>
        <time>2015-11-28T14:46:53Z</time>
      </trkpt>
      <trkpt lat="48.11816" lon="3.25654">
        <ele>108.29</ele>
        <time>2015-11-28T14:46:58Z</time>
      </trkpt>
      <trkpt lat="48.11794" lon="3.25675">
        <ele>105.88</ele>
        <time>2015-11-28T14:47:07Z</time>
      </trkpt>
      <trkpt lat="48.11767" lon="3.25693">
        <ele>103.48</ele>
        <time>2015-11-28T14:47:12Z</time>
      </trkpt>
      <trkpt lat="48.1173" lon="3.25723">
        <ele>102.52</ele>
        <time>2015-11-28T14:47:17Z</time>
      </trkpt>
      <trkpt lat="48.11715" lon="3.2575">
        <ele>101.08</ele>
        <time>2015-11-28T14:47:23Z</time>
      </trkpt>
      <trkpt lat="48.11689" lon="3.25759">
        <ele>98.67</ele>
        <time>2015-11-28T14:47:33Z</time>
      </trkpt>
      <trkpt lat="48.11666" lon="3.25778">
        <ele>96.27</ele>
        <time>2015-11-28T14:47:38Z</time>
      </trkpt>
      <trkpt lat="48.11642" lon="3.25798">
        <ele>95.31</ele>
        <time>2015-11-28T14:47:42Z</time>
      </trkpt>
      <trkpt lat="48.1161" lon="3.25815">
        <ele>94.35</ele>
        <time>2015-11-28T14:47:47Z</time>
      </trkpt>
      <trkpt lat="48.11584" lon="3.25827">
        <ele>94.35</ele>
        <time>2015-11-28T14:47:52Z</time>
      </trkpt>
      <trkpt lat="48.11568" lon="3.25809">
        <ele>97.71</ele>
        <time>2015-11-28T14:48:01Z</time>
      </trkpt>
      <trkpt lat="48.11576" lon="3.25786">
        <ele>99.63</ele>
        <time>2015-11-28T14:48:55Z</time>
      </trkpt>
      <trkpt lat="48.11586" lon="3.25762">
        <ele>101.08</ele>
        <time>2015-11-28T14:49:04Z</time>
      </trkpt>
      <trkpt lat="48.11594" lon="3.25734">
        <ele>103.96</ele>
        <time>2015-11-28T14:49:15Z</time>
      </trkpt>
      <trkpt lat="48.11603" lon="3.25708">
        <ele>104.92</ele>
        <time>2015-11-28T14:49:25Z</time>
      </trkpt>
      <trkpt lat="48.11612" lon="3.25683">
        <ele>107.32</ele>
        <time>2015-11-28T14:49:35Z</time>
      </trkpt>
      <trkpt lat="48.11622" lon="3.25657">
        <ele>108.77</ele>
        <time>2015-11-28T14:49:44Z</time>
      </trkpt>
      <trkpt lat="48.1163" lon="3.25631">
        <ele>111.17</ele>
        <time>2015-11-28T14:49:53Z</time>
      </trkpt>
      <trkpt lat="48.11637" lon="3.25606">
        <ele>113.09</ele>
        <time>2015-11-28T14:50:02Z</time>
      </trkpt>
      <trkpt lat="48.11651" lon="3.25589">
        <ele>115.98</ele>
        <time>2015-11-28T14:50:13Z</time>
      </trkpt>
      <trkpt lat="48.11668" lon="3.2558">
        <ele>117.9</ele>
        <time>2015-11-28T14:50:25Z</time>
      </trkpt>
      <trkpt lat="48.11687" lon="3.2557">
        <ele>121.26</ele>
        <time>2015-11-28T14:50:38Z</time>
      </trkpt>
      <trkpt lat="48.11704" lon="3.2556">
        <ele>123.67</ele>
        <time>2015-11-28T14:50:50Z</time>
      </trkpt>
      <trkpt lat="48.11723" lon="3.25551">
        <ele>126.55</ele>
        <time>2015-11-28T14:51:01Z</time>
      </trkpt>
      <trkpt lat="48.1174" lon="3.25543">
        <ele>129.43</ele>
        <time>2015-11-28T14:51:12Z</time>
      </trkpt>
      <trkpt lat="48.11756" lon="3.25531">
        <ele>132.32</ele>
        <time>2015-11-28T14:51:23Z</time>
      </trkpt>
      <trkpt lat="48.11774" lon="3.25519">
        <ele>134.72</ele>
        <time>2015-11-28T14:51:34Z</time>
      </trkpt>
      <trkpt lat="48.11792" lon="3.25505">
        <ele>137.61</ele>
        <time>2015-11-28T14:51:46Z</time>
      </trkpt>
      <trkpt lat="48.1181" lon="3.2549">
        <ele>140.49</ele>
        <time>2015-11-28T14:51:57Z</time>
      </trkpt>
      <trkpt lat="48.11828" lon="3.25478">
        <ele>140.97</ele>
        <time>2015-11-28T14:52:09Z</time>
      </trkpt>
      <trkpt lat="48.11845" lon="3.2546">
        <ele>143.85</ele>
        <time>2015-11-28T14:52:22Z</time>
      </trkpt>
      <trkpt lat="48.11859" lon="3.25439">
        <ele>146.74</ele>
        <time>2015-11-28T14:52:36Z</time>
      </trkpt>
      <trkpt lat="48.11872" lon="3.25416">
        <ele>150.1</ele>
        <time>2015-11-28T14:52:48Z</time>
      </trkpt>
      <trkpt lat="48.11881" lon="3.25388">
        <ele>152.51</ele>
        <time>2015-11-28T14:53:01Z</time>
      </trkpt>
      <trkpt lat="48.1189" lon="3.25361">
        <ele>155.39</ele>
        <time>2015-11-28T14:53:13Z</time>
      </trkpt>
      <trkpt lat="48.11902" lon="3.25332">
        <ele>157.31</ele>
        <time>2015-11-28T14:54:09Z</time>
      </trkpt>
      <trkpt lat="48.11919" lon="3.25339">
        <ele>157.31</ele>
        <time>2015-11-28T14:56:02Z</time>
      </trkpt>
      <trkpt lat="48.1194" lon="3.25344">
        <ele>154.91</ele>
        <time>2015-11-28T14:56:07Z</time>
      </trkpt>
      <trkpt lat="48.11962" lon="3.25344">
        <ele>152.03</ele>
        <time>2015-11-28T14:56:11Z</time>
      </trkpt>
      <trkpt lat="48.11981" lon="3.25349">
        <ele>149.62</ele>
        <time>2015-11-28T14:56:16Z</time>
      </trkpt>
      <trkpt lat="48.12001" lon="3.25368">
        <ele>142.89</ele>
        <time>2015-11-28T14:56:30Z</time>
      </trkpt>
      <trkpt lat="48.12023" lon="3.25379">
        <ele>139.53</ele>
        <time>2015-11-28T14:56:48Z</time>
      </trkpt>
      <trkpt lat="48.12048" lon="3.25375">
        <ele>136.64</ele>
        <time>2015-11-28T14:57:12Z</time>
      </trkpt>
      <trkpt lat="48.12076" lon="3.25391">
        <ele>140.97</ele>
        <time>2015-11-28T14:59:04Z</time>
      </trkpt>
      <trkpt lat="48.12104" lon="3.25406">
        <ele>146.74</ele>
        <time>2015-11-28T14:59:32Z</time>
      </trkpt>
      <trkpt lat="48.12131" lon="3.25417">
        <ele>152.99</ele>
        <time>2015-11-28T15:00:02Z</time>
      </trkpt>
      <trkpt lat="48.12157" lon="3.25403">
        <ele>156.35</ele>
        <time>2015-11-28T15:00:46Z</time>
      </trkpt>
      <trkpt lat="48.12168" lon="3.25376">
        <ele>158.27</ele>
        <time>2015-11-28T15:00:58Z</time>
      </trkpt>
      <trkpt lat="48.12182" lon="3.25347">
        <ele>161.64</ele>
        <time>2015-11-28T15:01:07Z</time>
      </trkpt>
      <trkpt lat="48.12192" lon="3.25316">
        <ele>163.56</ele>
        <time>2015-11-28T15:01:17Z</time>
      </trkpt>
      <trkpt lat="48.12207" lon="3.25285">
        <ele>165.48</ele>
        <time>2015-11-28T15:01:24Z</time>
      </trkpt>
      <trkpt lat="48.1222" lon="3.25258">
        <ele>166.93</ele>
        <time>2015-11-28T15:01:31Z</time>
      </trkpt>
      <trkpt lat="48.12234" lon="3.25231">
        <ele>168.85</ele>
        <time>2015-11-28T15:01:39Z</time>
      </trkpt>
      <trkpt lat="48.12247" lon="3.25206">
        <ele>170.77</ele>
        <time>2015-11-28T15:01:48Z</time>
      </trkpt>
      <trkpt lat="48.12259" lon="3.2522">
        <ele>171.25</ele>
        <time>2015-11-28T15:02:21Z</time>
      </trkpt>
      <trkpt lat="48.1227" lon="3.25248">
        <ele>171.73</ele>
        <time>2015-11-28T15:02:31Z</time>
      </trkpt>
      <trkpt lat="48.12268" lon="3.25278">
        <ele>171.73</ele>
        <time>2015-11-28T15:02:40Z</time>
      </trkpt>
      <trkpt lat="48.1227" lon="3.25313">
        <ele>171.25</ele>
        <time>2015-11-28T15:02:52Z</time>
      </trkpt>
      <trkpt lat="48.12258" lon="3.2535">
        <ele>169.33</ele>
        <time>2015-11-28T15:03:02Z</time>
      </trkpt>
      <trkpt lat="48.12251" lon="3.25393">
        <ele>168.85</ele>
        <time>2015-11-28T15:03:11Z</time>
      </trkpt>
      <trkpt lat="48.12251" lon="3.25451">
        <ele>168.85</ele>
        <time>2015-11-28T15:03:21Z</time>
      </trkpt>
      <trkpt lat="48.12251" lon="3.25492">
        <ele>169.81</ele>
        <time>2015-11-28T15:03:32Z</time>
      </trkpt>
      <trkpt lat="48.12248" lon="3.25524">
        <ele>169.33</ele>
        <time>2015-11-28T15:05:13Z</time>
      </trkpt>
      <trkpt lat="48.12245" lon="3.25553">
        <ele>168.85</ele>
        <time>2015-11-28T15:05:19Z</time>
      </trkpt>
      <trkpt lat="48.12243" lon="3.25582">
        <ele>169.33</ele>
        <time>2015-11-28T15:05:24Z</time>
      </trkpt>
      <trkpt lat="48.12241" lon="3.25611">
        <ele>170.29</ele>
        <time>2015-11-28T15:05:29Z</time>
      </trkpt>
      <trkpt lat="48.1224" lon="3.25641">
        <ele>169.81</ele>
        <time>2015-11-28T15:05:34Z</time>
      </trkpt>
      <trkpt lat="48.12238" lon="3.2567">
        <ele>170.77</ele>
        <time>2015-11-28T15:05:39Z</time>
      </trkpt>
      <trkpt lat="48.12236" lon="3.25697">
        <ele>170.77</ele>
        <time>2015-11-28T15:05:44Z</time>
      </trkpt>
      <trkpt lat="48.12235" lon="3.25726">
        <ele>170.77</ele>
        <time>2015-11-28T15:05:49Z</time>
      </trkpt>
      <trkpt lat="48.12234" lon="3.25755">
        <ele>171.73</ele>
        <time>2015-11-28T15:05:54Z</time>
      </trkpt>
      <trkpt lat="48.12231" lon="3.25787">
        <ele>171.73</ele>
        <time>2015-11-28T15:06:00Z</time>
      </trkpt>
      <trkpt lat="48.12238" lon="3.25815">
        <ele>172.21</ele>
        <time>2015-11-28T15:06:07Z</time>
      </trkpt>
      <trkpt lat="48.12256" lon="3.25816">
        <ele>172.21</ele>
        <time>2015-11-28T15:06:15Z</time>
      </trkpt>
      <trkpt lat="48.12277" lon="3.25821">
        <ele>170.77</ele>
        <time>2015-11-28T15:06:20Z</time>
      </trkpt>
      <trkpt lat="48.12298" lon="3.25827">
        <ele>168.85</ele>
        <time>2015-11-28T15:06:25Z</time>
      </trkpt>
      <trkpt lat="48.12319" lon="3.25832">
        <ele>168.37</ele>
        <time>2015-11-28T15:06:30Z</time>
      </trkpt>
      <trkpt lat="48.12342" lon="3.25837">
        <ele>166.45</ele>
        <time>2015-11-28T15:06:35Z</time>
      </trkpt>
      <trkpt lat="48.12361" lon="3.25842">
        <ele>165.48</ele>
        <time>2015-11-28T15:06:39Z</time>
      </trkpt>
      <trkpt lat="48.12381" lon="3.25846">
        <ele>163.08</ele>
        <time>2015-11-28T15:06:43Z</time>
      </trkpt>
      <trkpt lat="48.124" lon="3.2585">
        <ele>161.64</ele>
        <time>2015-11-28T15:06:47Z</time>
      </trkpt>
      <trkpt lat="48.1242" lon="3.25858">
        <ele>160.68</ele>
        <time>2015-11-28T15:06:52Z</time>
      </trkpt>
      <trkpt lat="48.12443" lon="3.25867">
        <ele>158.27</ele>
        <time>2015-11-28T15:07:13Z</time>
      </trkpt>
      <trkpt lat="48.12464" lon="3.25883">
        <ele>155.87</ele>
        <time>2015-11-28T15:07:20Z</time>
      </trkpt>
      <trkpt lat="48.12477" lon="3.25904">
        <ele>155.39</ele>
        <time>2015-11-28T15:07:25Z</time>
      </trkpt>
      <trkpt lat="48.12496" lon="3.25927">
        <ele>154.43</ele>
        <time>2015-11-28T15:07:31Z</time>
      </trkpt>
      <trkpt lat="48.12517" lon="3.25948">
        <ele>152.51</ele>
        <time>2015-11-28T15:07:36Z</time>
      </trkpt>
      <trkpt lat="48.1253" lon="3.25977">
        <ele>150.1</ele>
        <time>2015-11-28T15:07:41Z</time>
      </trkpt>
      <trkpt lat="48.12547" lon="3.25998">
        <ele>148.66</ele>
        <time>2015-11-28T15:07:47Z</time>
      </trkpt>
      <trkpt lat="48.12569" lon="3.25997">
        <ele>150.1</ele>
        <time>2015-11-28T15:08:02Z</time>
      </trkpt>
      <trkpt lat="48.12588" lon="3.25959">
        <ele>152.03</ele>
        <time>2015-11-28T15:08:21Z</time>
      </trkpt>
      <trkpt lat="48.12593" lon="3.25922">
        <ele>154.91</ele>
        <time>2015-11-28T15:08:37Z</time>
      </trkpt>
      <trkpt lat="48.12595" lon="3.25877">
        <ele>156.35</ele>
        <time>2015-11-28T15:08:53Z</time>
      </trkpt>
      <trkpt lat="48.126" lon="3.25835">
        <ele>159.24</ele>
        <time>2015-11-28T15:09:16Z</time>
      </trkpt>
      <trkpt lat="48.12608" lon="3.25789">
        <ele>160.2</ele>
        <time>2015-11-28T15:09:38Z</time>
      </trkpt>
      <trkpt lat="48.12608" lon="3.25748">
        <ele>161.64</ele>
        <time>2015-11-28T15:09:56Z</time>
      </trkpt>
      <trkpt lat="48.12612" lon="3.25704">
        <ele>164.52</ele>
        <time>2015-11-28T15:10:15Z</time>
      </trkpt>
      <trkpt lat="48.12611" lon="3.25667">
        <ele>166.45</ele>
        <time>2015-11-28T15:10:34Z</time>
      </trkpt>
      <trkpt lat="48.12623" lon="3.25623">
        <ele>165.96</ele>
        <time>2015-11-28T15:10:56Z</time>
      </trkpt>
      <trkpt lat="48.12631" lon="3.25577">
        <ele>167.89</ele>
        <time>2015-11-28T15:11:36Z</time>
      </trkpt>
      <trkpt lat="48.12624" lon="3.25551">
        <ele>169.33</ele>
        <time>2015-11-28T15:11:51Z</time>
      </trkpt>
      <trkpt lat="48.12628" lon="3.25516">
        <ele>170.29</ele>
        <time>2015-11-28T15:12:07Z</time>
      </trkpt>
      <trkpt lat="48.12621" lon="3.2548">
        <ele>171.73</ele>
        <time>2015-11-28T15:12:33Z</time>
      </trkpt>
      <trkpt lat="48.12617" lon="3.25445">
        <ele>172.21</ele>
        <time>2015-11-28T15:12:44Z</time>
      </trkpt>
      <trkpt lat="48.12599" lon="3.25439">
        <ele>173.17</ele>
        <time>2015-11-28T15:16:26Z</time>
      </trkpt>
      <trkpt lat="48.12577" lon="3.25444">
        <ele>174.14</ele>
        <time>2015-11-28T15:16:36Z</time>
      </trkpt>
      <trkpt lat="48.12558" lon="3.25449">
        <ele>173.66</ele>
        <time>2015-11-28T15:16:44Z</time>
      </trkpt>
      <trkpt lat="48.12548" lon="3.2546">
        <ele>173.17</ele>
        <time>2015-11-28T15:16:59Z</time>
      </trkpt>
      <trkpt lat="48.12548" lon="3.255">
        <ele>172.21</ele>
        <time>2015-11-28T15:17:21Z</time>
      </trkpt>
      <trkpt lat="48.12539" lon="3.25541">
        <ele>170.77</ele>
        <time>2015-11-28T15:17:48Z</time>
      </trkpt>
      <trkpt lat="48.12537" lon="3.25581">
        <ele>168.85</ele>
        <time>2015-11-28T15:18:02Z</time>
      </trkpt>
      <trkpt lat="48.12547" lon="3.25602">
        <ele>168.37</ele>
        <time>2015-11-28T15:18:18Z</time>
      </trkpt>
      <trkpt lat="48.12556" lon="3.25636">
        <ele>166.45</ele>
        <time>2015-11-28T15:18:35Z</time>
      </trkpt>
      <trkpt lat="48.1256" lon="3.25681">
        <ele>164.52</ele>
        <time>2015-11-28T15:18:50Z</time>
      </trkpt>
      <trkpt lat="48.12562" lon="3.25725">
        <ele>162.6</ele>
        <time>2015-11-28T15:19:26Z</time>
      </trkpt>
      <trkpt lat="48.12563" lon="3.25763">
        <ele>161.16</ele>
        <time>2015-11-28T15:19:47Z</time>
      </trkpt>
      <trkpt lat="48.12557" lon="3.25808">
        <ele>157.79</ele>
        <time>2015-11-28T15:20:05Z</time>
      </trkpt>
      <trkpt lat="48.12549" lon="3.25842">
        <ele>155.87</ele>
        <time>2015-11-28T15:20:17Z</time>
      </trkpt>
      <trkpt lat="48.1254" lon="3.25906">
        <ele>152.99</ele>
        <time>2015-11-28T15:20:47Z</time>
      </trkpt>
      <trkpt lat="48.12538" lon="3.25961">
        <ele>151.06</ele>
        <time>2015-11-28T15:23:27Z</time>
      </trkpt>
      <trkpt lat="48.12548" lon="3.25984">
        <ele>148.66</ele>
        <time>2015-11-28T15:23:35Z</time>
      </trkpt>
      <trkpt lat="48.12562" lon="3.26006">
        <ele>147.7</ele>
        <time>2015-11-28T15:23:43Z</time>
      </trkpt>
      <trkpt lat="48.12564" lon="3.26034">
        <ele>149.62</ele>
        <time>2015-11-28T15:23:52Z</time>
      </trkpt>
      <trkpt lat="48.12561" lon="3.26072">
        <ele>151.06</ele>
        <time>2015-11-28T15:24:03Z</time>
      </trkpt>
      <trkpt lat="48.12554" lon="3.26112">
        <ele>150.58</ele>
        <time>2015-11-28T15:24:13Z</time>
      </trkpt>
      <trkpt lat="48.12552" lon="3.26153">
        <ele>150.58</ele>
        <time>2015-11-28T15:24:22Z</time>
      </trkpt>
      <trkpt lat="48.12553" lon="3.26194">
        <ele>150.1</ele>
        <time>2015-11-28T15:24:34Z</time>
      </trkpt>
      <trkpt lat="48.12558" lon="3.26245">
        <ele>148.66</ele>
        <time>2015-11-28T15:24:47Z</time>
      </trkpt>
      <trkpt lat="48.12557" lon="3.26291">
        <ele>148.18</ele>
        <time>2015-11-28T15:25:04Z</time>
      </trkpt>
      <trkpt lat="48.12554" lon="3.26321">
        <ele>147.22</ele>
        <time>2015-11-28T15:25:11Z</time>
      </trkpt>
      <trkpt lat="48.12557" lon="3.26353">
        <ele>146.26</ele>
        <time>2015-11-28T15:25:18Z</time>
      </trkpt>
      <trkpt lat="48.12558" lon="3.26387">
        <ele>145.3</ele>
        <time>2015-11-28T15:25:25Z</time>
      </trkpt>
      <trkpt lat="48.12564" lon="3.26418">
        <ele>145.3</ele>
        <time>2015-11-28T15:25:31Z</time>
      </trkpt>
      <trkpt lat="48.1256" lon="3.26447">
        <ele>144.82</ele>
        <time>2015-11-28T15:25:39Z</time>
      </trkpt>
      <trkpt lat="48.12554" lon="3.2648">
        <ele>144.34</ele>
        <time>2015-11-28T15:25:50Z</time>
      </trkpt>
      <trkpt lat="48.12549" lon="3.26514">
        <ele>143.85</ele>
        <time>2015-11-28T15:26:00Z</time>
      </trkpt>
      <trkpt lat="48.12538" lon="3.26551">
        <ele>145.3</ele>
        <time>2015-11-28T15:26:08Z</time>
      </trkpt>
      <trkpt lat="48.12529" lon="3.26584">
        <ele>145.3</ele>
        <time>2015-11-28T15:26:15Z</time>
      </trkpt>
      <trkpt lat="48.12523" lon="3.26623">
        <ele>144.34</ele>
        <time>2015-11-28T15:26:22Z</time>
      </trkpt>
      <trkpt lat="48.1252" lon="3.26668">
        <ele>143.37</ele>
        <time>2015-11-28T15:26:33Z</time>
      </trkpt>
      <trkpt lat="48.12518" lon="3.2671">
        <ele>142.89</ele>
        <time>2015-11-28T15:26:40Z</time>
      </trkpt>
      <trkpt lat="48.12523" lon="3.2675">
        <ele>141.93</ele>
        <time>2015-11-28T15:26:45Z</time>
      </trkpt>
      <trkpt lat="48.12538" lon="3.26768">
        <ele>140.97</ele>
        <time>2015-11-28T15:26:49Z</time>
      </trkpt>
      <trkpt lat="48.12542" lon="3.268">
        <ele>140.01</ele>
        <time>2015-11-28T15:26:56Z</time>
      </trkpt>
      <trkpt lat="48.12536" lon="3.26829">
        <ele>139.05</ele>
        <time>2015-11-28T15:27:02Z</time>
      </trkpt>
      <trkpt lat="48.12526" lon="3.26861">
        <ele>140.01</ele>
        <time>2015-11-28T15:27:09Z</time>
      </trkpt>
      <trkpt lat="48.12518" lon="3.26891">
        <ele>139.53</ele>
        <time>2015-11-28T15:27:14Z</time>
      </trkpt>
      <trkpt lat="48.12507" lon="3.26918">
        <ele>139.53</ele>
        <time>2015-11-28T15:27:21Z</time>
      </trkpt>
      <trkpt lat="48.12492" lon="3.26942">
        <ele>140.49</ele>
        <time>2015-11-28T15:27:30Z</time>
      </trkpt>
      <trkpt lat="48.12493" lon="3.26973">
        <ele>139.53</ele>
        <time>2015-11-28T15:27:39Z</time>
      </trkpt>
      <trkpt lat="48.12498" lon="3.27007">
        <ele>139.05</ele>
        <time>2015-11-28T15:27:47Z</time>
      </trkpt>
      <trkpt lat="48.12497" lon="3.27041">
        <ele>139.53</ele>
        <time>2015-11-28T15:27:55Z</time>
      </trkpt>
      <trkpt lat="48.12498" lon="3.27075">
        <ele>138.57</ele>
        <time>2015-11-28T15:28:02Z</time>
      </trkpt>
      <trkpt lat="48.12483" lon="3.27094">
        <ele>139.05</ele>
        <time>2015-11-28T15:28:11Z</time>
      </trkpt>
      <trkpt lat="48.12464" lon="3.27115">
        <ele>139.05</ele>
        <time>2015-11-28T15:28:21Z</time>
      </trkpt>
      <trkpt lat="48.12453" lon="3.2714">
        <ele>137.61</ele>
        <time>2015-11-28T15:28:27Z</time>
      </trkpt>
      <trkpt lat="48.12443" lon="3.2717">
        <ele>137.13</ele>
        <time>2015-11-28T15:28:33Z</time>
      </trkpt>
      <trkpt lat="48.12434" lon="3.27199">
        <ele>136.64</ele>
        <time>2015-11-28T15:28:39Z</time>
      </trkpt>
      <trkpt lat="48.12422" lon="3.27216">
        <ele>136.64</ele>
        <time>2015-11-28T15:28:46Z</time>
      </trkpt>
      <trkpt lat="48.12403" lon="3.2721">
        <ele>137.61</ele>
        <time>2015-11-28T15:28:53Z</time>
      </trkpt>
      <trkpt lat="48.12383" lon="3.27218">
        <ele>136.64</ele>
        <time>2015-11-28T15:28:59Z</time>
      </trkpt>
      <trkpt lat="48.12363" lon="3.27223">
        <ele>136.64</ele>
        <time>2015-11-28T15:29:05Z</time>
      </trkpt>
      <trkpt lat="48.12343" lon="3.27228">
        <ele>135.68</ele>
        <time>2015-11-28T15:29:11Z</time>
      </trkpt>
      <trkpt lat="48.12324" lon="3.27221">
        <ele>136.64</ele>
        <time>2015-11-28T15:29:17Z</time>
      </trkpt>
      <trkpt lat="48.12303" lon="3.27219">
        <ele>137.13</ele>
        <time>2015-11-28T15:29:23Z</time>
      </trkpt>
      <trkpt lat="48.12284" lon="3.2722">
        <ele>139.05</ele>
        <time>2015-11-28T15:29:29Z</time>
      </trkpt>
      <trkpt lat="48.12265" lon="3.2722">
        <ele>139.05</ele>
        <time>2015-11-28T15:29:35Z</time>
      </trkpt>
      <trkpt lat="48.12245" lon="3.27227">
        <ele>140.01</ele>
        <time>2015-11-28T15:29:42Z</time>
      </trkpt>
      <trkpt lat="48.12227" lon="3.27216">
        <ele>139.05</ele>
        <time>2015-11-28T15:29:48Z</time>
      </trkpt>
      <trkpt lat="48.12205" lon="3.27205">
        <ele>137.61</ele>
        <time>2015-11-28T15:29:53Z</time>
      </trkpt>
      <trkpt lat="48.12186" lon="3.27201">
        <ele>137.13</ele>
        <time>2015-11-28T15:29:57Z</time>
      </trkpt>
      <trkpt lat="48.12164" lon="3.272">
        <ele>135.2</ele>
        <time>2015-11-28T15:30:01Z</time>
      </trkpt>
      <trkpt lat="48.1214" lon="3.27194">
        <ele>132.32</ele>
        <time>2015-11-28T15:30:05Z</time>
      </trkpt>
      <trkpt lat="48.12117" lon="3.27188">
        <ele>129.43</ele>
        <time>2015-11-28T15:30:08Z</time>
      </trkpt>
      <trkpt lat="48.12095" lon="3.27176">
        <ele>125.59</ele>
        <time>2015-11-28T15:30:11Z</time>
      </trkpt>
      <trkpt lat="48.12074" lon="3.27167">
        <ele>124.63</ele>
        <time>2015-11-28T15:30:14Z</time>
      </trkpt>
      <trkpt lat="48.12054" lon="3.27162">
        <ele>121.26</ele>
        <time>2015-11-28T15:30:17Z</time>
      </trkpt>
      <trkpt lat="48.12034" lon="3.27156">
        <ele>118.38</ele>
        <time>2015-11-28T15:30:20Z</time>
      </trkpt>
      <trkpt lat="48.12013" lon="3.27146">
        <ele>113.57</ele>
        <time>2015-11-28T15:30:23Z</time>
      </trkpt>
      <trkpt lat="48.11993" lon="3.2714">
        <ele>110.21</ele>
        <time>2015-11-28T15:30:26Z</time>
      </trkpt>
      <trkpt lat="48.11974" lon="3.27132">
        <ele>105.4</ele>
        <time>2015-11-28T15:30:29Z</time>
      </trkpt>
      <trkpt lat="48.11954" lon="3.27122">
        <ele>103.96</ele>
        <time>2015-11-28T15:30:32Z</time>
      </trkpt>
      <trkpt lat="48.11934" lon="3.27107">
        <ele>101.08</ele>
        <time>2015-11-28T15:30:36Z</time>
      </trkpt>
      <trkpt lat="48.11914" lon="3.27099">
        <ele>99.15</ele>
        <time>2015-11-28T15:30:40Z</time>
      </trkpt>
      <trkpt lat="48.11893" lon="3.27086">
        <ele>97.23</ele>
        <time>2015-11-28T15:30:44Z</time>
      </trkpt>
      <trkpt lat="48.11875" lon="3.27076">
        <ele>95.79</ele>
        <time>2015-11-28T15:30:47Z</time>
      </trkpt>
      <trkpt lat="48.11856" lon="3.27066">
        <ele>93.39</ele>
        <time>2015-11-28T15:30:50Z</time>
      </trkpt>
      <trkpt lat="48.11836" lon="3.27054">
        <ele>92.42</ele>
        <time>2015-11-28T15:30:53Z</time>
      </trkpt>
      <trkpt lat="48.11816" lon="3.27034">
        <ele>90.5</ele>
        <time>2015-11-28T15:30:56Z</time>
      </trkpt>
      <trkpt lat="48.11795" lon="3.27015">
        <ele>88.1</ele>
        <time>2015-11-28T15:30:59Z</time>
      </trkpt>
      <trkpt lat="48.11776" lon="3.26998">
        <ele>86.18</ele>
        <time>2015-11-28T15:31:02Z</time>
      </trkpt>
      <trkpt lat="48.11757" lon="3.26987">
        <ele>83.77</ele>
        <time>2015-11-28T15:31:05Z</time>
      </trkpt>
      <trkpt lat="48.11736" lon="3.27">
        <ele>80.89</ele>
        <time>2015-11-28T15:31:08Z</time>
      </trkpt>
      <trkpt lat="48.11715" lon="3.27007">
        <ele>78.97</ele>
        <time>2015-11-28T15:31:11Z</time>
      </trkpt>
      <trkpt lat="48.11696" lon="3.26998">
        <ele>77.04</ele>
        <time>2015-11-28T15:31:14Z</time>
      </trkpt>
      <trkpt lat="48.11681" lon="3.26981">
        <ele>76.56</ele>
        <time>2015-11-28T15:31:17Z</time>
      </trkpt>
      <trkpt lat="48.11664" lon="3.2696">
        <ele>76.56</ele>
        <time>2015-11-28T15:31:21Z</time>
      </trkpt>
      <trkpt lat="48.11649" lon="3.26938">
        <ele>76.56</ele>
        <time>2015-11-28T15:31:25Z</time>
      </trkpt>
      <trkpt lat="48.11634" lon="3.26916">
        <ele>76.56</ele>
        <time>2015-11-28T15:31:30Z</time>
      </trkpt>
      <trkpt lat="48.11622" lon="3.26896">
        <ele>76.08</ele>
        <time>2015-11-28T15:31:35Z</time>
      </trkpt>
      <trkpt lat="48.1161" lon="3.26875">
        <ele>76.56</ele>
        <time>2015-11-28T15:31:41Z</time>
      </trkpt>
      <trkpt lat="48.11598" lon="3.26852">
        <ele>76.56</ele>
        <time>2015-11-28T15:31:47Z</time>
      </trkpt>
      <trkpt lat="48.11585" lon="3.2683">
        <ele>76.08</ele>
        <time>2015-11-28T15:31:53Z</time>
      </trkpt>
      <trkpt lat="48.11571" lon="3.26805">
        <ele>76.08</ele>
        <time>2015-11-28T15:31:59Z</time>
      </trkpt>
      <trkpt lat="48.11559" lon="3.26783">
        <ele>76.08</ele>
        <time>2015-11-28T15:32:05Z</time>
      </trkpt>
      <trkpt lat="48.11543" lon="3.26769">
        <ele>76.08</ele>
        <time>2015-11-28T15:32:13Z</time>
      </trkpt>
      <trkpt lat="48.11527" lon="3.2676">
        <ele>75.12</ele>
        <time>2015-11-28T15:33:29Z</time>
      </trkpt>
      <trkpt lat="48.11506" lon="3.26753">
        <ele>75.12</ele>
        <time>2015-11-28T15:33:35Z</time>
      </trkpt>
      <trkpt lat="48.11486" lon="3.26748">
        <ele>74.16</ele>
        <time>2015-11-28T15:33:40Z</time>
      </trkpt>
      <trkpt lat="48.1147" lon="3.26752">
        <ele>73.68</ele>
        <time>2015-11-28T15:33:49Z</time>
      </trkpt>
      <trkpt lat="48.11471" lon="3.26783">
        <ele>73.2</ele>
        <time>2015-11-28T15:33:56Z</time>
      </trkpt>
      <trkpt lat="48.1147" lon="3.2681">
        <ele>72.72</ele>
        <time>2015-11-28T15:34:01Z</time>
      </trkpt>
      <trkpt lat="48.11467" lon="3.26837">
        <ele>71.76</ele>
        <time>2015-11-28T15:34:07Z</time>
      </trkpt>
      <trkpt lat="48.11465" lon="3.26867">
        <ele>70.31</ele>
        <time>2015-11-28T15:34:12Z</time>
      </trkpt>
      <trkpt lat="48.11461" lon="3.26894">
        <ele>70.31</ele>
        <time>2015-11-28T15:34:16Z</time>
      </trkpt>
      <trkpt lat="48.11456" lon="3.26922">
        <ele>70.31</ele>
        <time>2015-11-28T15:34:20Z</time>
      </trkpt>
      <trkpt lat="48.1145" lon="3.26949">
        <ele>71.76</ele>
        <time>2015-11-28T15:34:26Z</time>
      </trkpt>
      <trkpt lat="48.11452" lon="3.26974">
        <ele>71.76</ele>
        <time>2015-11-28T15:34:45Z</time>
      </trkpt>
      <trkpt lat="48.11463" lon="3.27">
        <ele>71.27</ele>
        <time>2015-11-28T15:34:51Z</time>
      </trkpt>
      <trkpt lat="48.11464" lon="3.27027">
        <ele>69.83</ele>
        <time>2015-11-28T15:34:55Z</time>
      </trkpt>
      <trkpt lat="48.11465" lon="3.27055">
        <ele>69.83</ele>
        <time>2015-11-28T15:34:59Z</time>
      </trkpt>
      <trkpt lat="48.11453" lon="3.27074">
        <ele>69.35</ele>
        <time>2015-11-28T15:35:03Z</time>
      </trkpt>
      <trkpt lat="48.11433" lon="3.27066">
        <ele>68.87</ele>
        <time>2015-11-28T15:35:07Z</time>
      </trkpt>
      <trkpt lat="48.11414" lon="3.27056">
        <ele>68.87</ele>
        <time>2015-11-28T15:35:11Z</time>
      </trkpt>
      <trkpt lat="48.11395" lon="3.27048">
        <ele>68.87</ele>
        <time>2015-11-28T15:35:15Z</time>
      </trkpt>
      <trkpt lat="48.11375" lon="3.2704">
        <ele>68.87</ele>
        <time>2015-11-28T15:35:19Z</time>
      </trkpt>
      <trkpt lat="48.11355" lon="3.27031">
        <ele>68.39</ele>
        <time>2015-11-28T15:35:23Z</time>
      </trkpt>
      <trkpt lat="48.11335" lon="3.27025">
        <ele>68.39</ele>
        <time>2015-11-28T15:35:27Z</time>
      </trkpt>
      <trkpt lat="48.11316" lon="3.2702">
        <ele>68.39</ele>
        <time>2015-11-28T15:35:31Z</time>
      </trkpt>
      <trkpt lat="48.11297" lon="3.27017">
        <ele>68.39</ele>
        <time>2015-11-28T15:35:35Z</time>
      </trkpt>
      <trkpt lat="48.11277" lon="3.27015">
        <ele>68.87</ele>
        <time>2015-11-28T15:35:39Z</time>
      </trkpt>
      <trkpt lat="48.11257" lon="3.27013">
        <ele>68.87</ele>
        <time>2015-11-28T15:35:43Z</time>
      </trkpt>
      <trkpt lat="48.11236" lon="3.2701">
        <ele>68.87</ele>
        <time>2015-11-28T15:35:47Z</time>
      </trkpt>
      <trkpt lat="48.11216" lon="3.27008">
        <ele>69.35</ele>
        <time>2015-11-28T15:35:51Z</time>
      </trkpt>
      <trkpt lat="48.11195" lon="3.27006">
        <ele>68.87</ele>
        <time>2015-11-28T15:35:55Z</time>
      </trkpt>
      <trkpt lat="48.11173" lon="3.27004">
        <ele>68.87</ele>
        <time>2015-11-28T15:35:59Z</time>
      </trkpt>
      <trkpt lat="48.11151" lon="3.27003">
        <ele>68.87</ele>
        <time>2015-11-28T15:36:03Z</time>
      </trkpt>
      <trkpt lat="48.1113" lon="3.27001">
        <ele>67.91</ele>
        <time>2015-11-28T15:36:07Z</time>
      </trkpt>
      <trkpt lat="48.11108" lon="3.26998">
        <ele>68.39</ele>
        <time>2015-11-28T15:36:11Z</time>
      </trkpt>
      <trkpt lat="48.11087" lon="3.26996">
        <ele>68.39</ele>
        <time>2015-11-28T15:36:15Z</time>
      </trkpt>
      <trkpt lat="48.11065" lon="3.26993">
        <ele>68.39</ele>
        <time>2015-11-28T15:36:19Z</time>
      </trkpt>
      <trkpt lat="48.11044" lon="3.2699">
        <ele>68.87</ele>
        <time>2015-11-28T15:36:23Z</time>
      </trkpt>
      <trkpt lat="48.11026" lon="3.26987">
        <ele>69.83</ele>
        <time>2015-11-28T15:36:27Z</time>
      </trkpt>
      <trkpt lat="48.11006" lon="3.26983">
        <ele>68.87</ele>
        <time>2015-11-28T15:36:31Z</time>
      </trkpt>
      <trkpt lat="48.10984" lon="3.26981">
        <ele>68.87</ele>
        <time>2015-11-28T15:36:35Z</time>
      </trkpt>
      <trkpt lat="48.10962" lon="3.26981">
        <ele>68.87</ele>
        <time>2015-11-28T15:36:39Z</time>
      </trkpt>
      <trkpt lat="48.10942" lon="3.26985">
        <ele>69.35</ele>
        <time>2015-11-28T15:36:43Z</time>
      </trkpt>
      <trkpt lat="48.10923" lon="3.2699">
        <ele>69.35</ele>
        <time>2015-11-28T15:36:47Z</time>
      </trkpt>
      <trkpt lat="48.10904" lon="3.26998">
        <ele>68.87</ele>
        <time>2015-11-28T15:36:51Z</time>
      </trkpt>
      <trkpt lat="48.10884" lon="3.2701">
        <ele>68.87</ele>
        <time>2015-11-28T15:36:55Z</time>
      </trkpt>
      <trkpt lat="48.10863" lon="3.27023">
        <ele>68.39</ele>
        <time>2015-11-28T15:36:59Z</time>
      </trkpt>
      <trkpt lat="48.10841" lon="3.27038">
        <ele>68.39</ele>
        <time>2015-11-28T15:37:03Z</time>
      </trkpt>
      <trkpt lat="48.10822" lon="3.27051">
        <ele>67.91</ele>
        <time>2015-11-28T15:37:07Z</time>
      </trkpt>
      <trkpt lat="48.10803" lon="3.27065">
        <ele>69.35</ele>
        <time>2015-11-28T15:37:11Z</time>
      </trkpt>
      <trkpt lat="48.10783" lon="3.27079">
        <ele>68.87</ele>
        <time>2015-11-28T15:37:15Z</time>
      </trkpt>
      <trkpt lat="48.10763" lon="3.27093">
        <ele>68.39</ele>
        <time>2015-11-28T15:37:19Z</time>
      </trkpt>
      <trkpt lat="48.10744" lon="3.27107">
        <ele>68.87</ele>
        <time>2015-11-28T15:37:23Z</time>
      </trkpt>
      <trkpt lat="48.10724" lon="3.27123">
        <ele>69.35</ele>
        <time>2015-11-28T15:37:27Z</time>
      </trkpt>
      <trkpt lat="48.10704" lon="3.27138">
        <ele>68.87</ele>
        <time>2015-11-28T15:37:31Z</time>
      </trkpt>
      <trkpt lat="48.10684" lon="3.27155">
        <ele>69.35</ele>
        <time>2015-11-28T15:37:35Z</time>
      </trkpt>
      <trkpt lat="48.10665" lon="3.27172">
        <ele>68.87</ele>
        <time>2015-11-28T15:37:39Z</time>
      </trkpt>
      <trkpt lat="48.10646" lon="3.2719">
        <ele>68.87</ele>
        <time>2015-11-28T15:37:43Z</time>
      </trkpt>
      <trkpt lat="48.10626" lon="3.27206">
        <ele>68.87</ele>
        <time>2015-11-28T15:37:47Z</time>
      </trkpt>
      <trkpt lat="48.10608" lon="3.27223">
        <ele>68.39</ele>
        <time>2015-11-28T15:37:51Z</time>
      </trkpt>
      <trkpt lat="48.10589" lon="3.27241">
        <ele>68.39</ele>
        <time>2015-11-28T15:37:55Z</time>
      </trkpt>
      <trkpt lat="48.10571" lon="3.2726">
        <ele>68.87</ele>
        <time>2015-11-28T15:37:59Z</time>
      </trkpt>
      <trkpt lat="48.10553" lon="3.27278">
        <ele>68.87</ele>
        <time>2015-11-28T15:38:03Z</time>
      </trkpt>
      <trkpt lat="48.10535" lon="3.27296">
        <ele>68.87</ele>
        <time>2015-11-28T15:38:07Z</time>
      </trkpt>
      <trkpt lat="48.10516" lon="3.27315">
        <ele>69.35</ele>
        <time>2015-11-28T15:38:11Z</time>
      </trkpt>
      <trkpt lat="48.10498" lon="3.27335">
        <ele>68.87</ele>
        <time>2015-11-28T15:38:15Z</time>
      </trkpt>
      <trkpt lat="48.10479" lon="3.27355">
        <ele>68.87</ele>
        <time>2015-11-28T15:38:19Z</time>
      </trkpt>
      <trkpt lat="48.10459" lon="3.27377">
        <ele>68.87</ele>
        <time>2015-11-28T15:38:23Z</time>
      </trkpt>
      <trkpt lat="48.10441" lon="3.27396">
        <ele>69.35</ele>
        <time>2015-11-28T15:38:27Z</time>
      </trkpt>
      <trkpt lat="48.10423" lon="3.27414">
        <ele>69.83</ele>
        <time>2015-11-28T15:38:31Z</time>
      </trkpt>
      <trkpt lat="48.10406" lon="3.27435">
        <ele>68.87</ele>
        <time>2015-11-28T15:38:35Z</time>
      </trkpt>
      <trkpt lat="48.10388" lon="3.27455">
        <ele>69.35</ele>
        <time>2015-11-28T15:38:39Z</time>
      </trkpt>
      <trkpt lat="48.1037" lon="3.27477">
        <ele>68.87</ele>
        <time>2015-11-28T15:38:43Z</time>
      </trkpt>
      <trkpt lat="48.10353" lon="3.275">
        <ele>68.39</ele>
        <time>2015-11-28T15:38:47Z</time>
      </trkpt>
      <trkpt lat="48.10337" lon="3.27524">
        <ele>68.39</ele>
        <time>2015-11-28T15:38:51Z</time>
      </trkpt>
      <trkpt lat="48.1032" lon="3.27547">
        <ele>67.91</ele>
        <time>2015-11-28T15:38:55Z</time>
      </trkpt>
      <trkpt lat="48.10304" lon="3.27571">
        <ele>67.91</ele>
        <time>2015-11-28T15:38:59Z</time>
      </trkpt>
      <trkpt lat="48.10289" lon="3.27595">
        <ele>67.91</ele>
        <time>2015-11-28T15:39:03Z</time>
      </trkpt>
      <trkpt lat="48.10274" lon="3.27621">
        <ele>67.91</ele>
        <time>2015-11-28T15:39:07Z</time>
      </trkpt>
      <trkpt lat="48.10261" lon="3.27647">
        <ele>67.43</ele>
        <time>2015-11-28T15:39:11Z</time>
      </trkpt>
      <trkpt lat="48.10247" lon="3.27672">
        <ele>67.91</ele>
        <time>2015-11-28T15:39:15Z</time>
      </trkpt>
      <trkpt lat="48.10234" lon="3.27696">
        <ele>67.91</ele>
        <time>2015-11-28T15:39:19Z</time>
      </trkpt>
      <trkpt lat="48.1022" lon="3.27717">
        <ele>67.91</ele>
        <time>2015-11-28T15:39:23Z</time>
      </trkpt>
      <trkpt lat="48.10207" lon="3.27739">
        <ele>67.43</ele>
        <time>2015-11-28T15:39:27Z</time>
      </trkpt>
      <trkpt lat="48.10195" lon="3.27761">
        <ele>67.91</ele>
        <time>2015-11-28T15:39:31Z</time>
      </trkpt>
      <trkpt lat="48.1018" lon="3.27787">
        <ele>67.91</ele>
        <time>2015-11-28T15:39:36Z</time>
      </trkpt>
      <trkpt lat="48.10166" lon="3.27814">
        <ele>67.91</ele>
        <time>2015-11-28T15:39:41Z</time>
      </trkpt>
      <trkpt lat="48.10153" lon="3.27838">
        <ele>68.39</ele>
        <time>2015-11-28T15:39:46Z</time>
      </trkpt>
      <trkpt lat="48.1014" lon="3.27859">
        <ele>67.91</ele>
        <time>2015-11-28T15:39:51Z</time>
      </trkpt>
      <trkpt lat="48.10123" lon="3.27883">
        <ele>68.39</ele>
        <time>2015-11-28T15:39:57Z</time>
      </trkpt>
      <trkpt lat="48.10109" lon="3.27906">
        <ele>68.39</ele>
        <time>2015-11-28T15:40:02Z</time>
      </trkpt>
      <trkpt lat="48.10095" lon="3.27934">
        <ele>68.87</ele>
        <time>2015-11-28T15:40:07Z</time>
      </trkpt>
      <trkpt lat="48.10082" lon="3.2796">
        <ele>68.39</ele>
        <time>2015-11-28T15:40:12Z</time>
      </trkpt>
      <trkpt lat="48.10068" lon="3.27984">
        <ele>68.39</ele>
        <time>2015-11-28T15:40:17Z</time>
      </trkpt>
      <trkpt lat="48.10055" lon="3.28009">
        <ele>67.43</ele>
        <time>2015-11-28T15:40:22Z</time>
      </trkpt>
      <trkpt lat="48.10042" lon="3.28034">
        <ele>67.91</ele>
        <time>2015-11-28T15:40:27Z</time>
      </trkpt>
      <trkpt lat="48.1003" lon="3.28061">
        <ele>67.91</ele>
        <time>2015-11-28T15:40:32Z</time>
      </trkpt>
      <trkpt lat="48.10017" lon="3.28086">
        <ele>69.35</ele>
        <time>2015-11-28T15:40:37Z</time>
      </trkpt>
      <trkpt lat="48.10004" lon="3.28111">
        <ele>68.39</ele>
        <time>2015-11-28T15:40:42Z</time>
      </trkpt>
      <trkpt lat="48.0999" lon="3.2814">
        <ele>67.43</ele>
        <time>2015-11-28T15:40:46Z</time>
      </trkpt>
      <trkpt lat="48.09979" lon="3.28165">
        <ele>67.91</ele>
        <time>2015-11-28T15:40:49Z</time>
      </trkpt>
      <trkpt lat="48.09967" lon="3.28189">
        <ele>67.91</ele>
        <time>2015-11-28T15:40:52Z</time>
      </trkpt>
      <trkpt lat="48.09956" lon="3.28212">
        <ele>67.91</ele>
        <time>2015-11-28T15:40:55Z</time>
      </trkpt>
      <trkpt lat="48.09945" lon="3.28234">
        <ele>67.91</ele>
        <time>2015-11-28T15:40:58Z</time>
      </trkpt>
      <trkpt lat="48.09934" lon="3.28256">
        <ele>67.91</ele>
        <time>2015-11-28T15:41:01Z</time>
      </trkpt>
      <trkpt lat="48.09922" lon="3.28278">
        <ele>67.91</ele>
        <time>2015-11-28T15:41:04Z</time>
      </trkpt>
      <trkpt lat="48.09908" lon="3.28299">
        <ele>67.91</ele>
        <time>2015-11-28T15:41:07Z</time>
      </trkpt>
      <trkpt lat="48.09895" lon="3.28317">
        <ele>68.39</ele>
        <time>2015-11-28T15:41:10Z</time>
      </trkpt>
      <trkpt lat="48.09878" lon="3.28341">
        <ele>67.91</ele>
        <time>2015-11-28T15:41:14Z</time>
      </trkpt>
      <trkpt lat="48.09862" lon="3.28363">
        <ele>68.87</ele>
        <time>2015-11-28T15:41:18Z</time>
      </trkpt>
      <trkpt lat="48.09847" lon="3.28385">
        <ele>68.39</ele>
        <time>2015-11-28T15:41:22Z</time>
      </trkpt>
      <trkpt lat="48.09832" lon="3.28405">
        <ele>68.39</ele>
        <time>2015-11-28T15:41:26Z</time>
      </trkpt>
      <trkpt lat="48.09815" lon="3.28424">
        <ele>68.87</ele>
        <time>2015-11-28T15:41:31Z</time>
      </trkpt>
      <trkpt lat="48.09801" lon="3.28443">
        <ele>68.87</ele>
        <time>2015-11-28T15:41:35Z</time>
      </trkpt>
      <trkpt lat="48.09785" lon="3.28465">
        <ele>68.39</ele>
        <time>2015-11-28T15:41:39Z</time>
      </trkpt>
      <trkpt lat="48.0977" lon="3.28487">
        <ele>67.43</ele>
        <time>2015-11-28T15:41:44Z</time>
      </trkpt>
      <trkpt lat="48.09753" lon="3.2851">
        <ele>68.39</ele>
        <time>2015-11-28T15:41:49Z</time>
      </trkpt>
      <trkpt lat="48.09736" lon="3.28531">
        <ele>68.39</ele>
        <time>2015-11-28T15:41:53Z</time>
      </trkpt>
      <trkpt lat="48.09718" lon="3.2855">
        <ele>68.87</ele>
        <time>2015-11-28T15:41:57Z</time>
      </trkpt>
      <trkpt lat="48.09701" lon="3.28565">
        <ele>69.35</ele>
        <time>2015-11-28T15:42:01Z</time>
      </trkpt>
      <trkpt lat="48.09685" lon="3.28581">
        <ele>68.87</ele>
        <time>2015-11-28T15:42:05Z</time>
      </trkpt>
      <trkpt lat="48.09669" lon="3.28596">
        <ele>68.39</ele>
        <time>2015-11-28T15:42:09Z</time>
      </trkpt>
      <trkpt lat="48.09652" lon="3.28613">
        <ele>68.87</ele>
        <time>2015-11-28T15:42:13Z</time>
      </trkpt>
      <trkpt lat="48.09635" lon="3.28631">
        <ele>67.91</ele>
        <time>2015-11-28T15:42:17Z</time>
      </trkpt>
      <trkpt lat="48.09617" lon="3.28649">
        <ele>68.39</ele>
        <time>2015-11-28T15:42:21Z</time>
      </trkpt>
      <trkpt lat="48.096" lon="3.28666">
        <ele>68.39</ele>
        <time>2015-11-28T15:42:25Z</time>
      </trkpt>
      <trkpt lat="48.09582" lon="3.28684">
        <ele>67.43</ele>
        <time>2015-11-28T15:42:29Z</time>
      </trkpt>
      <trkpt lat="48.09564" lon="3.28701">
        <ele>67.43</ele>
        <time>2015-11-28T15:42:33Z</time>
      </trkpt>
      <trkpt lat="48.09544" lon="3.28713">
        <ele>67.43</ele>
        <time>2015-11-28T15:42:37Z</time>
      </trkpt>
      <trkpt lat="48.09525" lon="3.28723">
        <ele>67.91</ele>
        <time>2015-11-28T15:42:41Z</time>
      </trkpt>
      <trkpt lat="48.09507" lon="3.28732">
        <ele>67.91</ele>
        <time>2015-11-28T15:42:45Z</time>
      </trkpt>
      <trkpt lat="48.09484" lon="3.2874">
        <ele>68.39</ele>
        <time>2015-11-28T15:42:50Z</time>
      </trkpt>
      <trkpt lat="48.09465" lon="3.28747">
        <ele>67.91</ele>
        <time>2015-11-28T15:42:54Z</time>
      </trkpt>
      <trkpt lat="48.09445" lon="3.28749">
        <ele>68.39</ele>
        <time>2015-11-28T15:42:58Z</time>
      </trkpt>
      <trkpt lat="48.09426" lon="3.28753">
        <ele>68.39</ele>
        <time>2015-11-28T15:43:02Z</time>
      </trkpt>
      <trkpt lat="48.09407" lon="3.28756">
        <ele>67.43</ele>
        <time>2015-11-28T15:43:06Z</time>
      </trkpt>
      <trkpt lat="48.09386" lon="3.28753">
        <ele>68.39</ele>
        <time>2015-11-28T15:43:10Z</time>
      </trkpt>
      <trkpt lat="48.09365" lon="3.2875">
        <ele>68.87</ele>
        <time>2015-11-28T15:43:14Z</time>
      </trkpt>
      <trkpt lat="48.09345" lon="3.28753">
        <ele>68.87</ele>
        <time>2015-11-28T15:43:18Z</time>
      </trkpt>
      <trkpt lat="48.09325" lon="3.28758">
        <ele>68.87</ele>
        <time>2015-11-28T15:43:22Z</time>
      </trkpt>
      <trkpt lat="48.09305" lon="3.28763">
        <ele>69.35</ele>
        <time>2015-11-28T15:43:26Z</time>
      </trkpt>
      <trkpt lat="48.09285" lon="3.28768">
        <ele>68.87</ele>
        <time>2015-11-28T15:43:30Z</time>
      </trkpt>
      <trkpt lat="48.09262" lon="3.28772">
        <ele>68.87</ele>
        <time>2015-11-28T15:43:34Z</time>
      </trkpt>
      <trkpt lat="48.09242" lon="3.28776">
        <ele>68.39</ele>
        <time>2015-11-28T15:43:38Z</time>
      </trkpt>
      <trkpt lat="48.09222" lon="3.28781">
        <ele>68.87</ele>
        <time>2015-11-28T15:43:42Z</time>
      </trkpt>
      <trkpt lat="48.09202" lon="3.28788">
        <ele>68.87</ele>
        <time>2015-11-28T15:43:46Z</time>
      </trkpt>
      <trkpt lat="48.09181" lon="3.28794">
        <ele>69.35</ele>
        <time>2015-11-28T15:43:50Z</time>
      </trkpt>
      <trkpt lat="48.09162" lon="3.28802">
        <ele>67.91</ele>
        <time>2015-11-28T15:43:54Z</time>
      </trkpt>
      <trkpt lat="48.09142" lon="3.28811">
        <ele>68.39</ele>
        <time>2015-11-28T15:43:58Z</time>
      </trkpt>
      <trkpt lat="48.09121" lon="3.28822">
        <ele>68.87</ele>
        <time>2015-11-28T15:44:02Z</time>
      </trkpt>
      <trkpt lat="48.09102" lon="3.28833">
        <ele>69.35</ele>
        <time>2015-11-28T15:44:06Z</time>
      </trkpt>
      <trkpt lat="48.09083" lon="3.28845">
        <ele>69.35</ele>
        <time>2015-11-28T15:44:10Z</time>
      </trkpt>
      <trkpt lat="48.09063" lon="3.28858">
        <ele>69.35</ele>
        <time>2015-11-28T15:44:14Z</time>
      </trkpt>
      <trkpt lat="48.09042" lon="3.28869">
        <ele>68.39</ele>
        <time>2015-11-28T15:44:18Z</time>
      </trkpt>
      <trkpt lat="48.09023" lon="3.28881">
        <ele>68.87</ele>
        <time>2015-11-28T15:44:22Z</time>
      </trkpt>
      <trkpt lat="48.09004" lon="3.28893">
        <ele>68.39</ele>
        <time>2015-11-28T15:44:26Z</time>
      </trkpt>
      <trkpt lat="48.08984" lon="3.28903">
        <ele>68.87</ele>
        <time>2015-11-28T15:44:30Z</time>
      </trkpt>
      <trkpt lat="48.08963" lon="3.28912">
        <ele>68.87</ele>
        <time>2015-11-28T15:44:34Z</time>
      </trkpt>
      <trkpt lat="48.08942" lon="3.28923">
        <ele>69.35</ele>
        <time>2015-11-28T15:44:38Z</time>
      </trkpt>
      <trkpt lat="48.08921" lon="3.28934">
        <ele>68.39</ele>
        <time>2015-11-28T15:44:42Z</time>
      </trkpt>
      <trkpt lat="48.089" lon="3.28946">
        <ele>67.91</ele>
        <time>2015-11-28T15:44:46Z</time>
      </trkpt>
      <trkpt lat="48.0888" lon="3.28957">
        <ele>68.39</ele>
        <time>2015-11-28T15:44:50Z</time>
      </trkpt>
      <trkpt lat="48.0886" lon="3.28969">
        <ele>68.39</ele>
        <time>2015-11-28T15:44:54Z</time>
      </trkpt>
      <trkpt lat="48.08838" lon="3.28981">
        <ele>68.39</ele>
        <time>2015-11-28T15:44:58Z</time>
      </trkpt>
      <trkpt lat="48.08817" lon="3.28991">
        <ele>67.91</ele>
        <time>2015-11-28T15:45:02Z</time>
      </trkpt>
      <trkpt lat="48.08796" lon="3.29">
        <ele>68.39</ele>
        <time>2015-11-28T15:45:06Z</time>
      </trkpt>
      <trkpt lat="48.08774" lon="3.29009">
        <ele>67.43</ele>
        <time>2015-11-28T15:45:10Z</time>
      </trkpt>
      <trkpt lat="48.08753" lon="3.29019">
        <ele>66.95</ele>
        <time>2015-11-28T15:45:14Z</time>
      </trkpt>
      <trkpt lat="48.08732" lon="3.29027">
        <ele>67.91</ele>
        <time>2015-11-28T15:45:18Z</time>
      </trkpt>
      <trkpt lat="48.08711" lon="3.29034">
        <ele>68.87</ele>
        <time>2015-11-28T15:45:22Z</time>
      </trkpt>
      <trkpt lat="48.0869" lon="3.29041">
        <ele>68.39</ele>
        <time>2015-11-28T15:45:26Z</time>
      </trkpt>
      <trkpt lat="48.08669" lon="3.29048">
        <ele>68.39</ele>
        <time>2015-11-28T15:45:30Z</time>
      </trkpt>
      <trkpt lat="48.08649" lon="3.29058">
        <ele>68.39</ele>
        <time>2015-11-28T15:45:34Z</time>
      </trkpt>
      <trkpt lat="48.08628" lon="3.29066">
        <ele>68.39</ele>
        <time>2015-11-28T15:45:39Z</time>
      </trkpt>
      <trkpt lat="48.08608" lon="3.29076">
        <ele>68.39</ele>
        <time>2015-11-28T15:45:44Z</time>
      </trkpt>
      <trkpt lat="48.08591" lon="3.29083">
        <ele>68.39</ele>
        <time>2015-11-28T15:45:48Z</time>
      </trkpt>
      <trkpt lat="48.08569" lon="3.29092">
        <ele>68.87</ele>
        <time>2015-11-28T15:45:53Z</time>
      </trkpt>
      <trkpt lat="48.08547" lon="3.29099">
        <ele>69.35</ele>
        <time>2015-11-28T15:45:58Z</time>
      </trkpt>
      <trkpt lat="48.08528" lon="3.29102">
        <ele>68.87</ele>
        <time>2015-11-28T15:46:03Z</time>
      </trkpt>
      <trkpt lat="48.0851" lon="3.29106">
        <ele>68.87</ele>
        <time>2015-11-28T15:46:08Z</time>
      </trkpt>
      <trkpt lat="48.0849" lon="3.2911">
        <ele>69.83</ele>
        <time>2015-11-28T15:46:14Z</time>
      </trkpt>
      <trkpt lat="48.08471" lon="3.2911">
        <ele>68.87</ele>
        <time>2015-11-28T15:46:20Z</time>
      </trkpt>
      <trkpt lat="48.08452" lon="3.29109">
        <ele>69.35</ele>
        <time>2015-11-28T15:46:26Z</time>
      </trkpt>
      <trkpt lat="48.08432" lon="3.29106">
        <ele>69.35</ele>
        <time>2015-11-28T15:46:32Z</time>
      </trkpt>
      <trkpt lat="48.08415" lon="3.29099">
        <ele>68.87</ele>
        <time>2015-11-28T15:46:38Z</time>
      </trkpt>
      <trkpt lat="48.08394" lon="3.29091">
        <ele>69.35</ele>
        <time>2015-11-28T15:46:45Z</time>
      </trkpt>
      <trkpt lat="48.08376" lon="3.29083">
        <ele>69.35</ele>
        <time>2015-11-28T15:46:51Z</time>
      </trkpt>
      <trkpt lat="48.08355" lon="3.29076">
        <ele>69.83</ele>
        <time>2015-11-28T15:46:58Z</time>
      </trkpt>
      <trkpt lat="48.08334" lon="3.29069">
        <ele>69.35</ele>
        <time>2015-11-28T15:47:04Z</time>
      </trkpt>
      <trkpt lat="48.08315" lon="3.29056">
        <ele>69.83</ele>
        <time>2015-11-28T15:47:10Z</time>
      </trkpt>
      <trkpt lat="48.083" lon="3.29039">
        <ele>70.79</ele>
        <time>2015-11-28T15:47:17Z</time>
      </trkpt>
      <trkpt lat="48.08304" lon="3.2901">
        <ele>70.79</ele>
        <time>2015-11-28T15:47:23Z</time>
      </trkpt>
      <trkpt lat="48.0831" lon="3.28984">
        <ele>71.76</ele>
        <time>2015-11-28T15:49:12Z</time>
      </trkpt>
      <trkpt lat="48.08316" lon="3.28957">
        <ele>70.79</ele>
        <time>2015-11-28T15:49:20Z</time>
      </trkpt>
      <trkpt lat="48.08321" lon="3.28927">
        <ele>71.76</ele>
        <time>2015-11-28T15:49:26Z</time>
      </trkpt>
      <trkpt lat="48.08323" lon="3.28893">
        <ele>70.79</ele>
        <time>2015-11-28T15:49:31Z</time>
      </trkpt>
      <trkpt lat="48.08322" lon="3.28866">
        <ele>69.83</ele>
        <time>2015-11-28T15:49:35Z</time>
      </trkpt>
      <trkpt lat="48.0832" lon="3.28838">
        <ele>70.79</ele>
        <time>2015-11-28T15:49:40Z</time>
      </trkpt>
      <trkpt lat="48.08318" lon="3.28806">
        <ele>70.31</ele>
        <time>2015-11-28T15:49:45Z</time>
      </trkpt>
      <trkpt lat="48.08315" lon="3.28774">
        <ele>70.79</ele>
        <time>2015-11-28T15:49:51Z</time>
      </trkpt>
      <trkpt lat="48.08306" lon="3.28748">
        <ele>71.76</ele>
        <time>2015-11-28T15:49:58Z</time>
      </trkpt>
      <trkpt lat="48.08302" lon="3.28719">
        <ele>71.76</ele>
        <time>2015-11-28T15:50:04Z</time>
      </trkpt>
      <trkpt lat="48.08295" lon="3.28694">
        <ele>72.24</ele>
        <time>2015-11-28T15:50:10Z</time>
      </trkpt>
      <trkpt lat="48.0831" lon="3.28683">
        <ele>70.31</ele>
        <time>2015-11-28T15:50:20Z</time>
      </trkpt>
      <trkpt lat="48.08314" lon="3.28628">
        <ele>71.76</ele>
        <time>2015-11-28T15:50:33Z</time>
      </trkpt>
      <trkpt lat="48.08316" lon="3.2859">
        <ele>71.76</ele>
        <time>2015-11-28T15:50:39Z</time>
      </trkpt>
      <trkpt lat="48.08325" lon="3.28564">
        <ele>72.24</ele>
        <time>2015-11-28T15:50:47Z</time>
      </trkpt>
      <trkpt lat="48.08323" lon="3.28535">
        <ele>72.72</ele>
        <time>2015-11-28T15:50:56Z</time>
      </trkpt>
      <trkpt lat="48.08319" lon="3.28508">
        <ele>74.16</ele>
        <time>2015-11-28T15:51:05Z</time>
      </trkpt>
      <trkpt lat="48.08314" lon="3.28477">
        <ele>77.52</ele>
        <time>2015-11-28T15:51:16Z</time>
      </trkpt>
      <trkpt lat="48.0831" lon="3.28449">
        <ele>79.93</ele>
        <time>2015-11-28T15:51:28Z</time>
      </trkpt>
      <trkpt lat="48.08305" lon="3.28418">
        <ele>84.73</ele>
        <time>2015-11-28T15:51:44Z</time>
      </trkpt>
      <trkpt lat="48.08304" lon="3.28384">
        <ele>90.98</ele>
        <time>2015-11-28T15:52:15Z</time>
      </trkpt>
      <trkpt lat="48.08323" lon="3.28373">
        <ele>92.42</ele>
        <time>2015-11-28T15:55:03Z</time>
      </trkpt>
      <trkpt lat="48.08342" lon="3.28369">
        <ele>91.94</ele>
        <time>2015-11-28T15:55:13Z</time>
      </trkpt>
      <trkpt lat="48.08362" lon="3.28364">
        <ele>93.87</ele>
        <time>2015-11-28T15:55:22Z</time>
      </trkpt>
      <trkpt lat="48.08382" lon="3.28357">
        <ele>93.87</ele>
        <time>2015-11-28T15:55:31Z</time>
      </trkpt>
      <trkpt lat="48.08399" lon="3.28342">
        <ele>94.35</ele>
        <time>2015-11-28T15:55:39Z</time>
      </trkpt>
      <trkpt lat="48.08414" lon="3.28326">
        <ele>92.9</ele>
        <time>2015-11-28T15:55:45Z</time>
      </trkpt>
      <trkpt lat="48.08431" lon="3.28308">
        <ele>90.98</ele>
        <time>2015-11-28T15:55:51Z</time>
      </trkpt>
      <trkpt lat="48.08446" lon="3.2829">
        <ele>90.02</ele>
        <time>2015-11-28T15:55:57Z</time>
      </trkpt>
      <trkpt lat="48.08462" lon="3.2827">
        <ele>89.54</ele>
        <time>2015-11-28T15:56:03Z</time>
      </trkpt>
      <trkpt lat="48.08479" lon="3.28249">
        <ele>87.62</ele>
        <time>2015-11-28T15:56:08Z</time>
      </trkpt>
      <trkpt lat="48.0849" lon="3.28231">
        <ele>83.77</ele>
        <time>2015-11-28T15:56:14Z</time>
      </trkpt>
      <trkpt lat="48.08482" lon="3.28206">
        <ele>84.73</ele>
        <time>2015-11-28T15:56:22Z</time>
      </trkpt>
      <trkpt lat="48.08473" lon="3.28183">
        <ele>85.69</ele>
        <time>2015-11-28T15:56:29Z</time>
      </trkpt>
      <trkpt lat="48.08463" lon="3.28159">
        <ele>87.14</ele>
        <time>2015-11-28T15:56:36Z</time>
      </trkpt>
      <trkpt lat="48.08454" lon="3.28133">
        <ele>88.1</ele>
        <time>2015-11-28T15:56:43Z</time>
      </trkpt>
      <trkpt lat="48.08444" lon="3.2811">
        <ele>88.58</ele>
        <time>2015-11-28T15:56:50Z</time>
      </trkpt>
      <trkpt lat="48.08434" lon="3.28085">
        <ele>88.58</ele>
        <time>2015-11-28T15:56:57Z</time>
      </trkpt>
      <trkpt lat="48.08424" lon="3.2806">
        <ele>90.5</ele>
        <time>2015-11-28T15:57:04Z</time>
      </trkpt>
      <trkpt lat="48.08416" lon="3.28035">
        <ele>91.46</ele>
        <time>2015-11-28T15:57:10Z</time>
      </trkpt>
      <trkpt lat="48.0841" lon="3.28008">
        <ele>92.9</ele>
        <time>2015-11-28T15:57:16Z</time>
      </trkpt>
      <trkpt lat="48.08404" lon="3.2798">
        <ele>94.35</ele>
        <time>2015-11-28T15:57:23Z</time>
      </trkpt>
      <trkpt lat="48.08399" lon="3.27952">
        <ele>95.79</ele>
        <time>2015-11-28T15:57:30Z</time>
      </trkpt>
      <trkpt lat="48.08393" lon="3.27925">
        <ele>97.23</ele>
        <time>2015-11-28T15:57:38Z</time>
      </trkpt>
      <trkpt lat="48.08382" lon="3.27902">
        <ele>99.15</ele>
        <time>2015-11-28T15:57:46Z</time>
      </trkpt>
      <trkpt lat="48.08372" lon="3.27877">
        <ele>100.6</ele>
        <time>2015-11-28T15:57:54Z</time>
      </trkpt>
      <trkpt lat="48.08362" lon="3.27855">
        <ele>102.04</ele>
        <time>2015-11-28T15:58:02Z</time>
      </trkpt>
      <trkpt lat="48.08358" lon="3.27832">
        <ele>103.48</ele>
        <time>2015-11-28T15:58:11Z</time>
      </trkpt>
      <trkpt lat="48.08359" lon="3.27804">
        <ele>103</ele>
        <time>2015-11-28T15:58:19Z</time>
      </trkpt>
      <trkpt lat="48.08361" lon="3.27775">
        <ele>103.48</ele>
        <time>2015-11-28T15:58:27Z</time>
      </trkpt>
      <trkpt lat="48.08354" lon="3.27747">
        <ele>103.96</ele>
        <time>2015-11-28T15:58:35Z</time>
      </trkpt>
      <trkpt lat="48.08348" lon="3.27722">
        <ele>105.4</ele>
        <time>2015-11-28T15:58:43Z</time>
      </trkpt>
      <trkpt lat="48.08347" lon="3.27692">
        <ele>106.84</ele>
        <time>2015-11-28T15:58:52Z</time>
      </trkpt>
      <trkpt lat="48.08346" lon="3.27664">
        <ele>107.81</ele>
        <time>2015-11-28T15:59:00Z</time>
      </trkpt>
      <trkpt lat="48.08344" lon="3.27637">
        <ele>107.81</ele>
        <time>2015-11-28T15:59:07Z</time>
      </trkpt>
      <trkpt lat="48.08339" lon="3.2761">
        <ele>108.29</ele>
        <time>2015-11-28T15:59:14Z</time>
      </trkpt>
      <trkpt lat="48.08332" lon="3.2758">
        <ele>108.29</ele>
        <time>2015-11-28T15:59:21Z</time>
      </trkpt>
      <trkpt lat="48.08326" lon="3.27552">
        <ele>109.25</ele>
        <time>2015-11-28T15:59:28Z</time>
      </trkpt>
      <trkpt lat="48.0832" lon="3.27523">
        <ele>108.77</ele>
        <time>2015-11-28T15:59:35Z</time>
      </trkpt>
      <trkpt lat="48.08312" lon="3.27497">
        <ele>109.73</ele>
        <time>2015-11-28T15:59:42Z</time>
      </trkpt>
      <trkpt lat="48.083" lon="3.27473">
        <ele>111.65</ele>
        <time>2015-11-28T15:59:50Z</time>
      </trkpt>
      <trkpt lat="48.08286" lon="3.27455">
        <ele>112.13</ele>
        <time>2015-11-28T15:59:57Z</time>
      </trkpt>
      <trkpt lat="48.08271" lon="3.27439">
        <ele>113.57</ele>
        <time>2015-11-28T16:00:04Z</time>
      </trkpt>
      <trkpt lat="48.08257" lon="3.27422">
        <ele>115.01</ele>
        <time>2015-11-28T16:00:11Z</time>
      </trkpt>
      <trkpt lat="48.08244" lon="3.27405">
        <ele>117.42</ele>
        <time>2015-11-28T16:00:18Z</time>
      </trkpt>
      <trkpt lat="48.0823" lon="3.27383">
        <ele>119.34</ele>
        <time>2015-11-28T16:00:26Z</time>
      </trkpt>
      <trkpt lat="48.08219" lon="3.27359">
        <ele>121.74</ele>
        <time>2015-11-28T16:00:34Z</time>
      </trkpt>
      <trkpt lat="48.08208" lon="3.27331">
        <ele>123.67</ele>
        <time>2015-11-28T16:00:43Z</time>
      </trkpt>
      <trkpt lat="48.082" lon="3.27302">
        <ele>126.55</ele>
        <time>2015-11-28T16:00:52Z</time>
      </trkpt>
      <trkpt lat="48.08194" lon="3.27276">
        <ele>128.47</ele>
        <time>2015-11-28T16:01:00Z</time>
      </trkpt>
      <trkpt lat="48.08189" lon="3.27249">
        <ele>130.4</ele>
        <time>2015-11-28T16:01:08Z</time>
      </trkpt>
      <trkpt lat="48.08186" lon="3.27222">
        <ele>131.84</ele>
        <time>2015-11-28T16:01:16Z</time>
      </trkpt>
      <trkpt lat="48.08181" lon="3.27194">
        <ele>133.76</ele>
        <time>2015-11-28T16:01:25Z</time>
      </trkpt>
      <trkpt lat="48.08172" lon="3.27165">
        <ele>136.64</ele>
        <time>2015-11-28T16:01:34Z</time>
      </trkpt>
      <trkpt lat="48.08165" lon="3.27137">
        <ele>138.57</ele>
        <time>2015-11-28T16:01:43Z</time>
      </trkpt>
      <trkpt lat="48.08158" lon="3.27108">
        <ele>140.49</ele>
        <time>2015-11-28T16:01:52Z</time>
      </trkpt>
      <trkpt lat="48.0815" lon="3.27081">
        <ele>142.41</ele>
        <time>2015-11-28T16:02:00Z</time>
      </trkpt>
      <trkpt lat="48.08144" lon="3.27052">
        <ele>143.37</ele>
        <time>2015-11-28T16:02:09Z</time>
      </trkpt>
      <trkpt lat="48.08137" lon="3.27028">
        <ele>144.82</ele>
        <time>2015-11-28T16:02:17Z</time>
      </trkpt>
      <trkpt lat="48.08132" lon="3.27">
        <ele>145.78</ele>
        <time>2015-11-28T16:02:25Z</time>
      </trkpt>
      <trkpt lat="48.08125" lon="3.2697">
        <ele>147.22</ele>
        <time>2015-11-28T16:02:33Z</time>
      </trkpt>
      <trkpt lat="48.08119" lon="3.26945">
        <ele>148.66</ele>
        <time>2015-11-28T16:02:40Z</time>
      </trkpt>
      <trkpt lat="48.08111" lon="3.26918">
        <ele>149.14</ele>
        <time>2015-11-28T16:02:47Z</time>
      </trkpt>
      <trkpt lat="48.08104" lon="3.26892">
        <ele>150.1</ele>
        <time>2015-11-28T16:02:54Z</time>
      </trkpt>
      <trkpt lat="48.08095" lon="3.26864">
        <ele>151.54</ele>
        <time>2015-11-28T16:03:02Z</time>
      </trkpt>
      <trkpt lat="48.08087" lon="3.26837">
        <ele>153.95</ele>
        <time>2015-11-28T16:03:10Z</time>
      </trkpt>
      <trkpt lat="48.0808" lon="3.26811">
        <ele>155.87</ele>
        <time>2015-11-28T16:03:18Z</time>
      </trkpt>
      <trkpt lat="48.08072" lon="3.26785">
        <ele>157.79</ele>
        <time>2015-11-28T16:03:26Z</time>
      </trkpt>
      <trkpt lat="48.08063" lon="3.26758">
        <ele>159.72</ele>
        <time>2015-11-28T16:03:34Z</time>
      </trkpt>
      <trkpt lat="48.08052" lon="3.26734">
        <ele>160.68</ele>
        <time>2015-11-28T16:03:41Z</time>
      </trkpt>
      <trkpt lat="48.08038" lon="3.26711">
        <ele>161.64</ele>
        <time>2015-11-28T16:03:48Z</time>
      </trkpt>
      <trkpt lat="48.08023" lon="3.26691">
        <ele>163.08</ele>
        <time>2015-11-28T16:03:55Z</time>
      </trkpt>
      <trkpt lat="48.08009" lon="3.26672">
        <ele>164.52</ele>
        <time>2015-11-28T16:04:02Z</time>
      </trkpt>
      <trkpt lat="48.07994" lon="3.26652">
        <ele>166.45</ele>
        <time>2015-11-28T16:04:09Z</time>
      </trkpt>
      <trkpt lat="48.07979" lon="3.26631">
        <ele>166.93</ele>
        <time>2015-11-28T16:04:16Z</time>
      </trkpt>
      <trkpt lat="48.07966" lon="3.26612">
        <ele>167.89</ele>
        <time>2015-11-28T16:04:22Z</time>
      </trkpt>
      <trkpt lat="48.07954" lon="3.26589">
        <ele>167.41</ele>
        <time>2015-11-28T16:04:28Z</time>
      </trkpt>
      <trkpt lat="48.07945" lon="3.26562">
        <ele>167.89</ele>
        <time>2015-11-28T16:04:35Z</time>
      </trkpt>
      <trkpt lat="48.07938" lon="3.26539">
        <ele>167.41</ele>
        <time>2015-11-28T16:04:44Z</time>
      </trkpt>
      <trkpt lat="48.0794" lon="3.26511">
        <ele>167.89</ele>
        <time>2015-11-28T16:09:33Z</time>
      </trkpt>
      <trkpt lat="48.0794" lon="3.26484">
        <ele>168.37</ele>
        <time>2015-11-28T16:09:40Z</time>
      </trkpt>
      <trkpt lat="48.0794" lon="3.26454">
        <ele>168.37</ele>
        <time>2015-11-28T16:09:47Z</time>
      </trkpt>
      <trkpt lat="48.07939" lon="3.26423">
        <ele>167.89</ele>
        <time>2015-11-28T16:09:54Z</time>
      </trkpt>
      <trkpt lat="48.0794" lon="3.26394">
        <ele>167.41</ele>
        <time>2015-11-28T16:10:00Z</time>
      </trkpt>
      <trkpt lat="48.07943" lon="3.26366">
        <ele>167.89</ele>
        <time>2015-11-28T16:10:06Z</time>
      </trkpt>
      <trkpt lat="48.07945" lon="3.26336">
        <ele>167.41</ele>
        <time>2015-11-28T16:10:12Z</time>
      </trkpt>
      <trkpt lat="48.07945" lon="3.26304">
        <ele>166.45</ele>
        <time>2015-11-28T16:10:18Z</time>
      </trkpt>
      <trkpt lat="48.07944" lon="3.26273">
        <ele>166.45</ele>
        <time>2015-11-28T16:10:23Z</time>
      </trkpt>
      <trkpt lat="48.07944" lon="3.26244">
        <ele>165.96</ele>
        <time>2015-11-28T16:10:28Z</time>
      </trkpt>
      <trkpt lat="48.07943" lon="3.26214">
        <ele>165.96</ele>
        <time>2015-11-28T16:10:33Z</time>
      </trkpt>
      <trkpt lat="48.07942" lon="3.26184">
        <ele>166.93</ele>
        <time>2015-11-28T16:10:38Z</time>
      </trkpt>
      <trkpt lat="48.07943" lon="3.26155">
        <ele>166.45</ele>
        <time>2015-11-28T16:10:43Z</time>
      </trkpt>
      <trkpt lat="48.07942" lon="3.26128">
        <ele>166.93</ele>
        <time>2015-11-28T16:10:48Z</time>
      </trkpt>
      <trkpt lat="48.07943" lon="3.26097">
        <ele>166.45</ele>
        <time>2015-11-28T16:10:55Z</time>
      </trkpt>
      <trkpt lat="48.07942" lon="3.2607">
        <ele>165.96</ele>
        <time>2015-11-28T16:11:03Z</time>
      </trkpt>
      <trkpt lat="48.07933" lon="3.26048">
        <ele>165.96</ele>
        <time>2015-11-28T16:11:12Z</time>
      </trkpt>
      <trkpt lat="48.07927" lon="3.2607">
        <ele>165.96</ele>
        <time>2015-11-28T16:12:07Z</time>
      </trkpt>
    </trkseg>
  </trk>
</gpx>